Flight Track Log - Related Links

Times and Time Zones

All times are in EDT time to prevent confusion due to time zone crossing. See the DAL268 flight status page for this flight to view local times or setup timezone preferences in your user account.

Time Position Orientation Groundspeed Altitude Reporting Facility
EDT Latitude Longitude Course Direction KTS MPH feet Rate Location/Type
Wed 12:38:35 AM 40.5645 -73.4769 91° East 306 352 5,500  Level FlightAware ADS-B
Wed 12:38:52 AM 40.5640 -73.4449 91° East 310 357 6,200 2,545 Climbing FlightAware ADS-B
Wed 12:39:08 AM 40.5638 -73.4147 90° East 313 360 6,900 2,625 Climbing FlightAware ADS-B
Wed 12:39:24 AM 40.5635 -73.3842 91° East 315 362 7,600 2,400 Climbing FlightAware ADS-B
Wed 12:39:43 AM 40.5632 -73.3473 91° East 319 367 8,300 2,400 Climbing FlightAware ADS-B
Wed 12:39:54 AM 40.5634 -73.3260 89° East 320 368 8,800 2,471 Climbing FlightAware ADS-B
Wed 12:40:00 AM 40.5645 -73.3162 82° East 323 372 9,000 2,182 Climbing FlightAware ADS-B
Wed 12:40:05 AM 40.5661 -73.3047 80° East 324 373 9,200 2,000 Climbing FlightAware ADS-B
Wed 12:40:09 AM 40.5679 -73.2972 72° East 325 374 9,300 2,400 Climbing FlightAware ADS-B
Wed 12:40:15 AM 40.5713 -73.2862 68° East 326 375 9,600 2,500 Climbing FlightAware ADS-B
Wed 12:40:21 AM 40.5753 -73.2757 63° Northeast 327 376 9,800 1,800 Climbing FlightAware ADS-B
Wed 12:40:25 AM 40.5786 -73.2689 57° Northeast 328 377 9,900 2,000 Climbing FlightAware ADS-B
Wed 12:40:33 AM 40.5866 -73.2565 50° Northeast 327 376 10,200 1,538 Climbing FlightAware ADS-B
Wed 12:41:04 AM 40.6178 -73.2102 48° Northeast 348 400 10,900 1,238 Climbing FlightAware ADS-B
Wed 12:41:36 AM 40.6548 -73.1555 48° Northeast 378 435 11,500 1,143 Climbing FlightAware ADS-B
Wed 12:42:07 AM 40.6907 -73.0986 50° Northeast 402 463 12,100 1,279 Climbing FlightAware ADS-B
Wed 12:42:37 AM 40.7265 -73.0389 52° Northeast 421 484 12,800 1,645 Climbing FlightAware ADS-B
Wed 12:43:09 AM 40.7651 -72.9730 52° Northeast 432 497 13,800 1,905 Climbing FlightAware ADS-B
Wed 12:43:40 AM 40.8033 -72.9072 53° Northeast 443 510 14,800 2,032 Climbing FlightAware ADS-B
Wed 12:44:11 AM 40.8412 -72.8422 52° Northeast 445 512 15,900 1,770 Climbing FlightAware ADS-B
Wed 12:44:41 AM 40.8804 -72.7766 52° Northeast 460 529 16,600 1,869 Climbing FlightAware ADS-B
Wed 12:45:12 AM 40.9224 -72.7058 52° Northeast 462 532 17,800 1,935 Climbing FlightAware ADS-B
Wed 12:45:43 AM 40.9636 -72.6366 52° Northeast 470 541 18,600 1,483 Climbing FlightAware ADS-B
Wed 12:46:41 AM 41.0353 -72.5144 52° Northeast 458 527 20,000 1,525 Climbing Boston Center
Wed 12:47:41 AM 41.1208 -72.3739 51° Northeast 474 545 21,600 1,422 Climbing Boston Center
Wed 12:50:50 AM 41.3840 -71.9180 51° Northeast 512 589 25,900 1,333 Climbing FlightAware ADS-B
Wed 12:51:35 AM 41.4500 -71.8030 53° Northeast 516 594 26,800 1,200 Climbing FlightAware ADS-B
Wed 12:52:15 AM 41.5050 -71.7090 52° Northeast 519 597 27,600 1,412 Climbing FlightAware ADS-B
Wed 12:53:00 AM 41.5740 -71.5870 53° Northeast 515 593 28,800 1,624 Climbing FlightAware ADS-B
Wed 12:53:40 AM 41.6320 -71.4840 53° Northeast 509 586 29,900 1,575 Climbing FlightAware ADS-B
Wed 12:54:20 AM 41.6880 -71.3840 53° Northeast 504 580 30,900 776 Climbing FlightAware ADS-B
Wed 12:55:05 AM 41.7520 -71.2720 53° Northeast 503 579 31,000 71 Climbing FlightAware ADS-B
Wed 12:55:45 AM 41.8020 -71.1830 53° Northeast 500 575 31,000  Level FlightAware ADS-B
Wed 12:56:20 AM 41.8530 -71.0910 53° Northeast 501 577 31,000 424 Level FlightAware ADS-B
Wed 12:57:10 AM 41.9220 -70.9690 53° Northeast 503 579 31,600 667 Climbing FlightAware ADS-B
Wed 12:57:50 AM 41.9810 -70.8620 53° Northeast 503 579 32,000 282 Climbing FlightAware ADS-B
Wed 12:58:35 AM 42.0390 -70.7590 53° Northeast 501 577 32,000  Level FlightAware ADS-B
Wed 12:59:15 AM 42.0990 -70.6490 54° Northeast 499 574 32,000 71 Level FlightAware ADS-B
Wed 01:00:00 AM 42.1610 -70.5370 53° Northeast 501 577 32,100 353 Climbing FlightAware ADS-B
Wed 01:00:40 AM 42.2160 -70.4360 54° Northeast 505 581 32,500 675 Climbing FlightAware ADS-B
Wed 01:01:20 AM 42.2700 -70.3370 54° Northeast 503 579 33,000 154 Climbing FlightAware ADS-B
Wed 01:03:55 AM 42.4860 -69.9400 53° Northeast 505 581 33,000  Level FlightAware ADS-B
Wed 01:04:40 AM 42.5500 -69.8240 53° Northeast 508 585 33,000  Level FlightAware ADS-B
Wed 01:05:10 AM 42.5870 -69.7530 55° Northeast 511 588 33,000  Level FlightAware ADS-B
Wed 01:06:00 AM 42.6630 -69.6120 54° Northeast 518 596 33,000  Level FlightAware ADS-B
Wed 01:06:45 AM 42.7240 -69.4950 55° Northeast 519 597 33,000  Level FlightAware ADS-B
Wed 01:07:25 AM 42.7800 -69.3920 53° Northeast 520 598 33,000  Level FlightAware ADS-B
Wed 01:08:05 AM 42.8380 -69.2830 54° Northeast 522 601 33,000  Level FlightAware ADS-B
Wed 01:08:50 AM 42.9010 -69.1630 54° Northeast 523 602 33,000  Level FlightAware ADS-B
Wed 01:09:30 AM 42.9580 -69.0550 54° Northeast 524 603 33,000  Level FlightAware ADS-B
Wed 01:10:10 AM 43.0140 -68.9480 54° Northeast 524 603 33,000  Level FlightAware ADS-B
Wed 01:10:45 AM 43.0630 -68.8530 55° Northeast 525 604 33,000  Level FlightAware ADS-B
Wed 01:11:40 AM 43.1350 -68.7180 54° Northeast 525 604 33,000  Level FlightAware ADS-B
Wed 01:12:20 AM 43.1840 -68.6260 54° Northeast 525 604 33,000  Level FlightAware ADS-B
Wed 01:13:00 AM 43.2320 -68.5340 54° Northeast 525 604 33,000  Level FlightAware ADS-B
Wed 01:13:40 AM 43.2810 -68.4420 54° Northeast 525 604 33,000  Level FlightAware ADS-B
Wed 01:14:20 AM 43.3290 -68.3510 54° Northeast 525 604 33,000  Level FlightAware ADS-B
Wed 01:15:10 AM 43.3900 -68.2360 54° Northeast 525 604 33,000  Level FlightAware ADS-B
Wed 01:15:50 AM 43.4940 -68.0120 57° Northeast 535 616 33,000  Level FlightAware ADS-B
Wed 01:16:30 AM 43.5500 -67.9000 55° Northeast 537 618 33,000  Level FlightAware ADS-B
Wed 01:17:15 AM 43.6150 -67.7700 55° Northeast 538 619 33,000  Level FlightAware ADS-B
Wed 01:17:55 AM 43.6720 -67.6570 55° Northeast 538 619 33,000  Level FlightAware ADS-B
Wed 01:18:35 AM 43.7290 -67.5440 55° Northeast 538 619 33,000  Level FlightAware ADS-B
Wed 01:19:20 AM 43.7910 -67.4160 56° Northeast 541 623 33,000  Level FlightAware ADS-B
Wed 01:20:00 AM 43.8470 -67.3040 55° Northeast 542 624 33,000  Level FlightAware ADS-B
Wed 01:20:45 AM 43.9120 -67.1720 56° Northeast 544 626 33,000  Level FlightAware ADS-B
Wed 01:21:25 AM 43.9680 -67.0570 56° Northeast 546 628 33,000  Level FlightAware ADS-B
Wed 01:22:05 AM 44.0250 -66.9410 56° Northeast 547 629 33,000  Level FlightAware ADS-B
Wed 01:22:50 AM 44.0900 -66.8070 56° Northeast 548 631 33,000  Level FlightAware ADS-B
Wed 01:23:30 AM 44.1470 -66.6890 56° Northeast 550 633 33,000  Level FlightAware ADS-B
Wed 01:24:10 AM 44.2040 -66.5710 56° Northeast 553 636 33,000  Level FlightAware ADS-B
Wed 01:24:55 AM 44.2680 -66.4410 55° Northeast 555 639 33,000  Level FlightAware ADS-B
Wed 01:25:35 AM 44.3250 -66.3180 57° Northeast 555 639 33,000  Level FlightAware ADS-B
Wed 01:26:20 AM 44.3880 -66.1870 56° Northeast 553 636 33,000  Level FlightAware ADS-B
Wed 01:27:00 AM 44.4440 -66.0680 57° Northeast 551 634 33,000  Level FlightAware ADS-B
Wed 01:27:40 AM 44.4980 -65.9520 57° Northeast 545 627 33,000  Level FlightAware ADS-B
Wed 01:28:25 AM 44.5630 -65.8160 56° Northeast 545 627 33,000  Level FlightAware ADS-B
Wed 01:29:05 AM 44.6220 -65.6910 56° Northeast 546 628 33,000  Level FlightAware ADS-B
Wed 01:29:50 AM 44.6830 -65.5580 57° Northeast 543 625 33,000  Level FlightAware ADS-B
Wed 01:30:30 AM 44.7370 -65.4430 57° Northeast 540 621 33,000  Level FlightAware ADS-B
Wed 01:31:15 AM 44.7990 -65.3070 57° Northeast 540 621 33,000  Level FlightAware ADS-B
Wed 01:31:55 AM 44.8540 -65.1900 56° Northeast 539 620 33,000  Level FlightAware ADS-B
Wed 01:32:35 AM 44.9080 -65.0710 57° Northeast 539 620 33,000  Level FlightAware ADS-B
Wed 01:33:20 AM 44.9670 -64.9410 57° Northeast 540 621 33,000  Level FlightAware ADS-B
Wed 01:34:00 AM 45.0210 -64.8220 57° Northeast 542 624 33,000  Level FlightAware ADS-B
Wed 01:34:45 AM 45.0830 -64.6850 57° Northeast 543 625 33,000  Level FlightAware ADS-B
Wed 01:35:25 AM 45.1370 -64.5650 57° Northeast 545 627 33,000  Level FlightAware ADS-B
Wed 01:36:05 AM 45.1910 -64.4410 58° Northeast 546 628 33,000  Level FlightAware ADS-B
Wed 01:36:50 AM 45.2490 -64.3140 57° Northeast 545 627 33,000  Level FlightAware ADS-B
Wed 01:37:30 AM 45.3030 -64.1900 58° Northeast 545 627 33,000  Level FlightAware ADS-B
Wed 01:38:15 AM 45.3610 -64.0590 58° Northeast 546 628 33,000  Level FlightAware ADS-B
Wed 01:39:05 AM 45.4270 -63.9080 58° Northeast 545 627 33,000  Level FlightAware ADS-B
Wed 01:40:00 AM 45.4930 -63.7580 58° Northeast 545 627 33,000  Level FlightAware ADS-B
Wed 01:40:40 AM 45.5380 -63.6550 58° Northeast 545 627 33,000  Level FlightAware ADS-B
Wed 01:41:20 AM 45.5830 -63.5510 58° Northeast 545 627 33,000  Level FlightAware ADS-B
Wed 01:42:10 AM 45.6400 -63.4210 58° Northeast 545 627 33,000  Level FlightAware ADS-B
Wed 01:43:45 AM 45.7930 -63.0580 59° Northeast 542 624 33,000  Level FlightAware ADS-B
Wed 01:44:40 AM 45.8690 -62.8830 58° Northeast 544 626 33,000  Level FlightAware ADS-B
Wed 01:45:30 AM 45.9240 -62.7510 59° Northeast 544 626 33,000  Level FlightAware ADS-B
Wed 01:46:10 AM 45.9680 -62.6460 59° Northeast 544 626 33,000  Level FlightAware ADS-B
Wed 01:46:50 AM 46.0120 -62.5400 59° Northeast 544 626 33,000  Level FlightAware ADS-B
Wed 01:47:35 AM 46.0960 -62.3410 59° Northeast 544 626 33,000  Level FlightAware ADS-B
Wed 01:48:15 AM 46.1510 -62.2070 59° Northeast 543 625 33,000  Level FlightAware ADS-B
Wed 01:49:00 AM 46.2100 -62.0630 59° Northeast 544 626 33,000  Level FlightAware ADS-B
Wed 01:49:35 AM 46.2530 -61.9570 60° Northeast 542 624 33,000  Level FlightAware ADS-B
Wed 01:50:25 AM 46.3160 -61.8040 59° Northeast 541 623 33,000  Level FlightAware ADS-B
Wed 01:51:05 AM 46.3670 -61.6800 59° Northeast 542 624 33,000  Level FlightAware ADS-B
Wed 01:51:45 AM 46.4180 -61.5510 60° Northeast 542 624 33,000  Level FlightAware ADS-B
Wed 01:52:30 AM 46.4750 -61.4100 60° Northeast 541 623 33,000  Level FlightAware ADS-B
Wed 01:53:10 AM 46.5250 -61.2840 60° Northeast 541 623 33,000  Level FlightAware ADS-B
Wed 01:53:50 AM 46.5760 -61.1560 60° Northeast 540 621 33,000  Level FlightAware ADS-B
Wed 01:54:30 AM 46.6250 -61.0330 60° Northeast 540 621 33,000  Level FlightAware ADS-B
Wed 01:55:15 AM 46.6790 -60.8950 60° Northeast 539 620 33,000  Level FlightAware ADS-B
Wed 01:56:00 AM 46.7370 -60.7470 60° Northeast 539 620 33,000  Level FlightAware ADS-B
Wed 01:56:40 AM 46.7860 -60.6200 61° Northeast 540 621 33,000  Level FlightAware ADS-B
Wed 01:57:25 AM 46.8410 -60.4810 60° Northeast 539 620 33,000  Level FlightAware ADS-B
Wed 01:58:05 AM 46.8890 -60.3580 60° Northeast 540 621 33,000  Level FlightAware ADS-B
Wed 01:58:45 AM 46.9380 -60.2270 61° Northeast 541 623 33,000  Level FlightAware ADS-B
Wed 01:59:30 AM 46.9940 -60.0830 60° Northeast 542 624 33,000  Level FlightAware ADS-B
Wed 02:00:10 AM 47.0430 -59.9520 61° Northeast 542 624 33,000  Level FlightAware ADS-B
Wed 02:00:50 AM 47.0850 -59.8400 61° Northeast 542 624 33,000  Level FlightAware ADS-B
Wed 02:01:35 AM 47.1450 -59.6810 61° Northeast 544 626 33,000  Level FlightAware ADS-B
Wed 02:02:15 AM 47.1940 -59.5520 61° Northeast 543 625 33,000  Level FlightAware ADS-B
Wed 02:03:00 AM 47.2480 -59.4060 61° Northeast 542 624 33,000  Level FlightAware ADS-B
Wed 02:03:40 AM 47.2960 -59.2770 61° Northeast 541 623 33,000  Level FlightAware ADS-B
Wed 02:04:15 AM 47.3360 -59.1670 62° Northeast 541 623 33,000  Level FlightAware ADS-B
Wed 02:05:05 AM 47.3940 -59.0120 61° Northeast 540 621 33,000  Level FlightAware ADS-B
Wed 02:05:45 AM 47.4430 -58.8790 61° Northeast 537 618 33,000  Level FlightAware ADS-B
Wed 02:06:25 AM 47.4900 -58.7470 62° Northeast 537 618 33,000  Level FlightAware ADS-B
Wed 02:07:10 AM 47.5400 -58.6080 62° Northeast 536 617 33,000  Level FlightAware ADS-B
Wed 02:07:50 AM 47.5890 -58.4720 62° Northeast 533 613 33,000  Level FlightAware ADS-B
Wed 02:08:35 AM 47.6360 -58.3430 62° Northeast 531 611 33,000  Level FlightAware ADS-B
Wed 02:09:10 AM 47.6810 -58.2150 62° Northeast 531 611 33,000  Level FlightAware ADS-B
Wed 02:09:55 AM 47.7330 -58.0700 62° Northeast 531 611 33,000  Level FlightAware ADS-B
Wed 02:10:40 AM 47.7840 -57.9240 62° Northeast 530 610 33,000  Level FlightAware ADS-B
Wed 02:11:20 AM 47.8260 -57.7990 63° Northeast 533 613 33,000  Level FlightAware ADS-B
Wed 02:12:05 AM 47.8740 -57.6510 64° Northeast 532 612 33,000  Level FlightAware ADS-B
Wed 02:12:45 AM 47.9160 -57.5190 65° Northeast 531 611 33,000  Level FlightAware ADS-B
Wed 02:13:25 AM 47.9600 -57.3830 64° Northeast 530 610 33,000  Level FlightAware ADS-B
Wed 02:14:10 AM 48.0070 -57.2320 65° Northeast 530 610 33,000  Level FlightAware ADS-B
Wed 02:14:50 AM 48.0480 -57.1040 64° Northeast 528 608 33,000  Level FlightAware ADS-B
Wed 02:15:35 AM 48.0950 -56.9560 65° Northeast 526 605 33,000  Level FlightAware ADS-B
Wed 02:16:15 AM 48.1370 -56.8240 64° Northeast 527 606 33,000  Level FlightAware ADS-B
Wed 02:16:55 AM 48.1780 -56.6920 65° Northeast 527 606 33,000  Level FlightAware ADS-B
Wed 02:17:40 AM 48.2250 -56.5430 65° Northeast 528 608 33,000  Level FlightAware ADS-B
Wed 02:18:20 AM 48.2670 -56.4060 65° Northeast 529 609 33,000  Level FlightAware ADS-B
Wed 02:19:05 AM 48.3100 -56.2670 65° Northeast 531 611 33,000  Level FlightAware ADS-B
Wed 02:19:45 AM 48.3540 -56.1220 65° Northeast 534 615 33,000  Level FlightAware ADS-B
Wed 02:20:25 AM 48.3950 -55.9890 65° Northeast 537 618 33,000  Level FlightAware ADS-B
Wed 02:21:10 AM 48.4410 -55.8340 66° East 533 613 33,000  Level FlightAware ADS-B
Wed 02:21:50 AM 48.4820 -55.6990 65° Northeast 533 613 33,000  Level FlightAware ADS-B
Wed 02:22:35 AM 48.5270 -55.5500 65° Northeast 528 608 33,000  Level FlightAware ADS-B
Wed 02:23:15 AM 48.5670 -55.4160 66° East 525 604 33,000  Level FlightAware ADS-B
Wed 02:24:00 AM 48.6110 -55.2660 66° East 524 603 33,000  Level FlightAware ADS-B
Wed 02:24:40 AM 48.6500 -55.1320 66° East 524 603 33,000  Level FlightAware ADS-B
Wed 02:25:20 AM 48.6900 -54.9980 66° East 524 603 33,000  Level FlightAware ADS-B
Wed 02:26:05 AM 48.7330 -54.8470 67° East 524 603 33,000  Level FlightAware ADS-B
Wed 02:26:45 AM 48.7720 -54.7130 66° East 526 605 33,000  Level FlightAware ADS-B
Wed 02:27:30 AM 48.8160 -54.5610 66° East 526 605 33,000  Level FlightAware ADS-B
Wed 02:28:10 AM 48.8550 -54.4220 67° East 526 605 33,000  Level FlightAware ADS-B
Wed 02:28:50 AM 48.8930 -54.2860 67° East 527 606 33,000  Level FlightAware ADS-B
Wed 02:29:35 AM 48.9370 -54.1330 66° East 527 606 33,000  Level FlightAware ADS-B
Wed 02:30:15 AM 48.9750 -53.9970 67° East 528 608 33,000  Level FlightAware ADS-B
Wed 02:30:55 AM 49.0130 -53.8630 67° East 528 608 33,000  Level FlightAware ADS-B
Wed 02:31:40 AM 49.0550 -53.7090 67° East 528 608 33,000  Level FlightAware ADS-B
Wed 02:32:20 AM 49.0930 -53.5720 67° East 527 606 33,000  Level FlightAware ADS-B
Wed 02:33:05 AM 49.1360 -53.4140 67° East 527 606 33,000  Level FlightAware ADS-B
Wed 02:33:45 AM 49.1730 -53.2770 68° East 527 606 33,000  Level FlightAware ADS-B
Wed 02:34:25 AM 49.2100 -53.1390 68° East 527 606 33,000  Level FlightAware ADS-B
Wed 02:35:10 AM 49.2520 -52.9840 67° East 526 605 33,000  Level FlightAware ADS-B
Wed 02:35:55 AM 49.2930 -52.8330 67° East 526 605 33,000  Level FlightAware ADS-B
Wed 02:36:35 AM 49.3290 -52.6950 68° East 525 604 33,000  Level FlightAware ADS-B
Wed 02:37:15 AM 49.3660 -52.5570 68° East 523 602 33,000  Level FlightAware ADS-B
Wed 02:37:55 AM 49.4020 -52.4160 69° East 524 603 33,000  Level FlightAware ADS-B
Wed 02:38:40 AM 49.4410 -52.2690 68° East 523 602 33,000  Level FlightAware ADS-B
Wed 02:39:15 AM 49.4720 -52.1480 68° East 523 602 33,000  Level FlightAware ADS-B
Wed 02:40:00 AM 49.5110 -51.9960 68° East 521 600 33,000  Level FlightAware ADS-B
Wed 02:40:45 AM 49.5530 -51.8310 69° East 519 597 33,000  Level FlightAware ADS-B
Wed 02:41:25 AM 49.5860 -51.7000 69° East 520 598 33,000  Level FlightAware ADS-B
Wed 02:42:20 AM 49.6320 -51.5220 68° East 518 596 33,000  Level FlightAware ADS-B
Wed 02:43:00 AM 49.6620 -51.4050 68° East 518 596 33,000  Level FlightAware ADS-B
Wed 02:43:50 AM 49.7000 -51.2600 68° East 518 596 33,000  Level FlightAware ADS-B
Wed 02:44:30 AM 49.7310 -51.1430 68° East 518 596 33,000  Level FlightAware ADS-B
Wed 02:45:10 AM 49.7610 -51.0260 68° East 518 596 33,000  Level FlightAware ADS-B
Wed 02:45:50 AM 49.7920 -50.9090 68° East 518 596 33,000  Level FlightAware ADS-B
Wed 02:46:40 AM 49.8300 -50.7620 68° East 518 596 33,000  Level FlightAware ADS-B
Wed 02:47:20 AM 49.8600 -50.6450 68° East 518 596 33,000  Level FlightAware ADS-B
Wed 02:48:00 AM 49.8910 -50.5280 68° East 518 596 33,000  Level FlightAware ADS-B
Wed 02:48:40 AM 49.9210 -50.4110 68° East 518 596 33,000  Level FlightAware ADS-B
Wed 02:49:20 AM 49.9520 -50.2930 68° East 518 596 33,000  Level FlightAware ADS-B
Wed 02:50:00 AM 49.9820 -50.1760 68° East 518 596 33,000  Level FlightAware ADS-B
Wed 02:50:50 AM 50.0210 -50.0290 68° East 518 596 33,000  Level FlightAware ADS-B
Wed 02:51:00 AM 50.0000 -50.0000 69° East 516 594 33,000  Level ETMS Enhanced Traffic Management System
Wed 02:51:29 AM 50.0667 -49.5500 69° East 520 598 33,000  Level Gander Center
Wed 02:51:30 AM 50.0510 -49.9110 68° East 518 596 33,000  Level FlightAware ADS-B
Wed 02:52:02 AM 50.1167 -49.4167 60° Northeast 520 598 33,000  Level Gander Center
Wed 02:52:29 AM 50.1333 -49.3333 73° East 520 598 33,000  Level Gander Center
Wed 02:53:29 AM 50.1833 -49.1333 69° East 510 587 33,000  Level Gander Center
Wed 02:54:29 AM 50.2333 -48.9333 69° East 520 598 33,000  Level Gander Center
Wed 02:55:29 AM 50.2833 -48.7000 71° East 520 598 33,000  Level Gander Center
Wed 02:56:29 AM 50.3333 -48.4833 70° East 520 598 33,000  Level Gander Center
Wed 02:57:02 AM 50.3500 -48.3667 77° East 520 598 33,000  Level Gander Center
Wed 02:57:34 AM 50.4000 -48.2833 47° Northeast 500 575 33,000  Level Gander Center
Wed 03:00:00 AM 50.4975 -47.8664 70° East  Level FlightAware Approximate
Wed 03:07:00 AM 50.8271 -46.3938 70° East  Level FlightAware Approximate
Wed 03:08:00 AM 50.8726 -46.1817 71° East  Level FlightAware Approximate
Wed 03:09:00 AM 50.9178 -45.9693 71° East  Level FlightAware Approximate
Wed 03:10:00 AM 50.9626 -45.7564 71° East  Level FlightAware Approximate
Wed 03:11:00 AM 51.0070 -45.5431 72° East  Level FlightAware Approximate
Wed 03:12:00 AM 51.0510 -45.3294 72° East  Level FlightAware Approximate
Wed 03:13:00 AM 51.0946 -45.1153 72° East  Level FlightAware Approximate
Wed 03:14:00 AM 51.1378 -44.9008 72° East  Level FlightAware Approximate
Wed 03:15:00 AM 51.1807 -44.6859 72° East  Level FlightAware Approximate
Wed 03:16:00 AM 51.2231 -44.4706 72° East  Level FlightAware Approximate
Wed 03:17:00 AM 51.2651 -44.2549 73° East  Level FlightAware Approximate
Wed 03:18:00 AM 51.3068 -44.0388 73° East  Level FlightAware Approximate
Wed 03:19:00 AM 51.3480 -43.8224 73° East  Level FlightAware Approximate
Wed 03:20:00 AM 51.3889 -43.6055 73° East  Level FlightAware Approximate
Wed 03:21:00 AM 51.4293 -43.3882 73° East  Level FlightAware Approximate
Wed 03:22:00 AM 51.4694 -43.1706 73° East  Level FlightAware Approximate
Wed 03:23:00 AM 51.5090 -42.9526 74° East  Level FlightAware Approximate
Wed 03:24:00 AM 51.5482 -42.7342 74° East  Level FlightAware Approximate
Wed 03:25:00 AM 51.5871 -42.5154 74° East  Level FlightAware Approximate
Wed 03:26:00 AM 51.6255 -42.2963 74° East  Level FlightAware Approximate
Wed 03:27:00 AM 51.6635 -42.0768 74° East  Level FlightAware Approximate
Wed 03:28:00 AM 51.7011 -41.8569 74° East  Level FlightAware Approximate
Wed 03:29:00 AM 51.7383 -41.6367 75° East  Level FlightAware Approximate
Wed 03:30:00 AM 51.7751 -41.4161 75° East  Level FlightAware Approximate
Wed 03:31:00 AM 51.8114 -41.1951 75° East  Level FlightAware Approximate
Wed 03:32:00 AM 51.8474 -40.9738 75° East  Level FlightAware Approximate
Wed 03:33:00 AM 51.8829 -40.7522 75° East  Level FlightAware Approximate
Wed 03:34:00 AM 51.9180 -40.5302 76° East  Level FlightAware Approximate
Wed 03:35:00 AM 51.9528 -40.3078 76° East  Level FlightAware Approximate
Wed 03:36:00 AM 51.9870 -40.0851 76° East  Level FlightAware Approximate
Wed 03:37:00 AM 52.0445 -39.8782 59° Northeast  Level FlightAware Approximate
Wed 03:38:00 AM 52.1162 -39.6803 59° Northeast  Level FlightAware Approximate
Wed 03:38:00 AM 52.0000 -40.0000 59° Northeast 532 612 33,000  Level ETMS Enhanced Traffic Management System
Wed 03:39:00 AM 52.1877 -39.4819 60° Northeast  Level FlightAware Approximate
Wed 03:40:00 AM 52.2588 -39.2828 60° Northeast  Level FlightAware Approximate
Wed 03:41:00 AM 52.3296 -39.0830 60° Northeast  Level FlightAware Approximate
Wed 03:42:00 AM 52.4000 -38.8826 60° Northeast  Level FlightAware Approximate
Wed 03:43:00 AM 52.4701 -38.6816 60° Northeast  Level FlightAware Approximate
Wed 03:44:00 AM 52.5398 -38.4800 60° Northeast  Level FlightAware Approximate
Wed 03:45:00 AM 52.7371 -37.9006 61° Northeast 532 612 33,000  Level FlightAware Transoceanic
Wed 03:46:00 AM 52.8087 -37.6868 61° Northeast 532 612 33,000  Level FlightAware Transoceanic
Wed 03:47:00 AM 52.8800 -37.4723 61° Northeast 532 612 33,000  Level FlightAware Transoceanic
Wed 03:48:00 AM 52.9508 -37.2570 61° Northeast 532 612 33,000  Level FlightAware Transoceanic
Wed 03:49:00 AM 53.0213 -37.0411 62° Northeast 532 612 33,000  Level FlightAware Transoceanic
Wed 03:50:00 AM 53.0914 -36.8245 62° Northeast 532 612 33,000  Level FlightAware Transoceanic
Wed 03:51:00 AM 53.1611 -36.6072 62° Northeast 532 612 33,000  Level FlightAware Transoceanic
Wed 03:52:00 AM 53.2304 -36.3891 62° Northeast 532 612 33,000  Level FlightAware Transoceanic
Wed 03:53:00 AM 53.2993 -36.1704 62° Northeast 532 612 33,000  Level FlightAware Transoceanic
Wed 03:54:00 AM 53.3677 -35.9510 62° Northeast 532 612 33,000  Level FlightAware Transoceanic
Wed 03:55:00 AM 53.4358 -35.7308 63° Northeast 532 612 33,000  Level FlightAware Transoceanic
Wed 03:56:00 AM 53.5035 -35.5100 63° Northeast 532 612 33,000  Level FlightAware Transoceanic
Wed 03:57:00 AM 53.5708 -35.2884 63° Northeast 532 612 33,000  Level FlightAware Transoceanic
Wed 03:58:00 AM 53.6376 -35.0662 63° Northeast 532 612 33,000  Level FlightAware Transoceanic
Wed 03:59:00 AM 53.7041 -34.8432 63° Northeast 532 612 33,000  Level FlightAware Transoceanic
Wed 04:00:00 AM 53.7701 -34.6195 64° Northeast 532 612 33,000  Level FlightAware Transoceanic
Wed 04:01:00 AM 53.8357 -34.3952 64° Northeast 532 612 33,000  Level FlightAware Transoceanic
Wed 04:02:00 AM 53.9009 -34.1701 64° Northeast 532 612 33,000  Level FlightAware Transoceanic
Wed 04:03:00 AM 53.9657 -33.9444 64° Northeast 532 612 33,000  Level FlightAware Transoceanic
Wed 04:04:00 AM 54.0300 -33.7179 64° Northeast 532 612 33,000  Level FlightAware Transoceanic
Wed 04:05:00 AM 54.0940 -33.4907 64° Northeast 532 612 33,000  Level FlightAware Transoceanic
Wed 04:06:00 AM 54.1575 -33.2628 65° Northeast 532 612 33,000  Level FlightAware Transoceanic
Wed 04:07:00 AM 54.2205 -33.0343 65° Northeast 532 612 33,000  Level FlightAware Transoceanic
Wed 04:08:00 AM 54.2831 -32.8050 65° Northeast 532 612 33,000  Level FlightAware Transoceanic
Wed 04:09:00 AM 54.3453 -32.5751 65° Northeast 532 612 33,000  Level FlightAware Transoceanic
Wed 04:10:00 AM 54.4071 -32.3444 65° Northeast 532 612 33,000  Level FlightAware Transoceanic
Wed 04:11:00 AM 54.4684 -32.1131 66° East 532 612 33,000  Level FlightAware Transoceanic
Wed 04:12:00 AM 54.5293 -31.8810 66° East 532 612 33,000  Level FlightAware Transoceanic
Wed 04:13:00 AM 54.5897 -31.6483 66° East 532 612 33,000  Level FlightAware Transoceanic
Wed 04:14:00 AM 54.6497 -31.4149 66° East 532 612 33,000  Level FlightAware Transoceanic
Wed 04:15:00 AM 54.7092 -31.1808 66° East 532 612 33,000  Level FlightAware Transoceanic
Wed 04:16:00 AM 54.7683 -30.9460 67° East 532 612 33,000  Level FlightAware Transoceanic
Wed 04:17:00 AM 54.8269 -30.7105 67° East 532 612 33,000  Level FlightAware Transoceanic
Wed 04:18:00 AM 54.8851 -30.4743 67° East 532 612 33,000  Level FlightAware Transoceanic
Wed 04:19:00 AM 54.9428 -30.2375 67° East 532 612 33,000  Level FlightAware Transoceanic
Wed 04:20:00 AM 54.9987 -30.0053 67° East  Level FlightAware Approximate
Wed 04:21:00 AM 55.0543 -29.7726 67° East  Level FlightAware Approximate
Wed 04:22:00 AM 54.9861 -29.7608 96° East  Level FlightAware Approximate
Wed 04:22:00 AM 55.0000 -30.0000 96° East 529 609 33,000  Level ETMS Enhanced Traffic Management System
Wed 04:22:53 AM 55.0000 -30.0000 96° East 529 609 33,000  Level ETMS Enhanced Traffic Management System
Wed 04:23:00 AM 54.9711 -29.5103 96° East  Level FlightAware Approximate
Wed 04:24:00 AM 54.9555 -29.2600 96° East  Level FlightAware Approximate
Wed 04:25:00 AM 54.9395 -29.0099 96° East  Level FlightAware Approximate
Wed 04:26:00 AM 54.9229 -28.7600 96° East  Level FlightAware Approximate
Wed 04:27:00 AM 54.9058 -28.5103 97° East  Level FlightAware Approximate
Wed 04:28:00 AM 54.8851 -28.2175 97° East 529 609 33,000  Level FlightAware Transoceanic
Wed 04:29:00 AM 54.8666 -27.9637 97° East 529 609 33,000  Level FlightAware Transoceanic
Wed 04:30:00 AM 54.8475 -27.7102 98° East 529 609 33,000  Level FlightAware Transoceanic
Wed 04:31:00 AM 54.8279 -27.4569 98° East 529 609 33,000  Level FlightAware Transoceanic
Wed 04:32:00 AM 54.8078 -27.2039 98° East 529 609 33,000  Level FlightAware Transoceanic
Wed 04:33:00 AM 54.7872 -26.9511 98° East 529 609 33,000  Level FlightAware Transoceanic
Wed 04:34:00 AM 54.7660 -26.6985 98° East 529 609 33,000  Level FlightAware Transoceanic
Wed 04:35:00 AM 54.7443 -26.4463 99° East 529 609 33,000  Level FlightAware Transoceanic
Wed 04:36:00 AM 54.7221 -26.1943 99° East 529 609 33,000  Level FlightAware Transoceanic
Wed 04:37:00 AM 54.6993 -25.9426 99° East 529 609 33,000  Level FlightAware Transoceanic
Wed 04:38:00 AM 54.6761 -25.6912 99° East 529 609 33,000  Level FlightAware Transoceanic
Wed 04:39:00 AM 54.6523 -25.4400 99° East 529 609 33,000  Level FlightAware Transoceanic
Wed 04:40:00 AM 54.6280 -25.1892 100° East 529 609 33,000  Level FlightAware Transoceanic
Wed 04:41:00 AM 54.6032 -24.9387 100° East 529 609 33,000  Level FlightAware Transoceanic
Wed 04:42:00 AM 54.5779 -24.6884 100° East 529 609 33,000  Level FlightAware Transoceanic
Wed 04:43:00 AM 54.5520 -24.4385 100° East 529 609 33,000  Level FlightAware Transoceanic
Wed 04:44:00 AM 54.5257 -24.1889 100° East 529 609 33,000  Level FlightAware Transoceanic
Wed 04:45:00 AM 54.4988 -23.9397 101° East 529 609 33,000  Level FlightAware Transoceanic
Wed 04:46:00 AM 54.4714 -23.6908 101° East 529 609 33,000  Level FlightAware Transoceanic
Wed 04:47:00 AM 54.4435 -23.4422 101° East 529 609 33,000  Level FlightAware Transoceanic
Wed 04:48:00 AM 54.4151 -23.1939 101° East 529 609 33,000  Level FlightAware Transoceanic
Wed 04:49:00 AM 54.3862 -22.9460 101° East 529 609 33,000  Level FlightAware Transoceanic
Wed 04:50:00 AM 54.3567 -22.6984 102° East 529 609 33,000  Level FlightAware Transoceanic
Wed 04:51:00 AM 54.3268 -22.4512 102° East 529 609 33,000  Level FlightAware Transoceanic
Wed 04:52:00 AM 54.2964 -22.2044 102° East 529 609 33,000  Level FlightAware Transoceanic
Wed 04:53:00 AM 54.2654 -21.9579 102° East 529 609 33,000  Level FlightAware Transoceanic
Wed 04:54:00 AM 54.2340 -21.7118 102° East 529 609 33,000  Level FlightAware Transoceanic
Wed 04:55:00 AM 54.2021 -21.4661 103° East 529 609 33,000  Level FlightAware Transoceanic
Wed 04:56:00 AM 54.1696 -21.2208 103° East 529 609 33,000  Level FlightAware Transoceanic
Wed 04:57:00 AM 54.1367 -20.9758 103° East 529 609 33,000  Level FlightAware Transoceanic
Wed 04:58:00 AM 54.1033 -20.7313 103° East 529 609 33,000  Level FlightAware Transoceanic
Wed 04:59:00 AM 54.0693 -20.4871 103° East 529 609 33,000  Level FlightAware Transoceanic
Wed 05:00:00 AM 54.0349 -20.2433 104° East 529 609 33,000  Level FlightAware Transoceanic
Wed 05:01:00 AM 54.0006 -20.0044 104° East  Level FlightAware Approximate
Wed 05:02:00 AM 53.9658 -19.7658 104° East  Level FlightAware Approximate
Wed 05:03:00 AM 53.9851 -19.7645 96° East  Level FlightAware Approximate
Wed 05:04:00 AM 53.9692 -19.5202 96° East  Level FlightAware Approximate
Wed 05:05:00 AM 53.9528 -19.2761 96° East  Level FlightAware Approximate
Wed 05:06:00 AM 53.9359 -19.0322 97° East  Level FlightAware Approximate
Wed 05:07:00 AM 53.9185 -18.7885 97° East  Level FlightAware Approximate
Wed 05:08:00 AM 53.9012 -18.5526 97° East  Level FlightAware Approximate
Wed 05:09:00 AM 53.8834 -18.3170 97° East  Level FlightAware Approximate
Wed 05:10:00 AM 53.8652 -18.0815 97° East  Level FlightAware Approximate
Wed 05:11:00 AM 53.8465 -17.8463 98° East  Level FlightAware Approximate
Wed 05:12:00 AM 53.8273 -17.6113 98° East  Level FlightAware Approximate
Wed 05:13:00 AM 53.8084 -17.3762 97° East  Level FlightAware Approximate
Wed 05:14:00 AM 53.7900 -17.1413 97° East  Level FlightAware Approximate
Wed 05:15:00 AM 53.7711 -16.9065 98° East  Level FlightAware Approximate
Wed 05:16:00 AM 53.7518 -16.6719 98° East  Level FlightAware Approximate
Wed 05:17:00 AM 53.7319 -16.4376 98° East  Level FlightAware Approximate
Wed 05:18:00 AM 53.7117 -16.2034 98° East  Level FlightAware Approximate
Wed 05:19:00 AM 53.6910 -15.9695 98° East  Level FlightAware Approximate
Wed 05:20:00 AM 53.6698 -15.7359 99° East  Level FlightAware Approximate
Wed 05:21:00 AM 53.6482 -15.5024 99° East  Level FlightAware Approximate
Wed 05:22:00 AM 53.6261 -15.2693 99° East  Level FlightAware Approximate
Wed 05:23:00 AM 53.6036 -15.0363 99° East  Level FlightAware Approximate
Wed 05:24:00 AM 53.5800 -14.8038 100° East  Level FlightAware Approximate
Wed 05:25:00 AM 53.5560 -14.5716 100° East  Level FlightAware Approximate
Wed 05:25:58 AM 53.9440 -14.0540 100° East 529 609 33,000  Level FlightAware ADS-B
Wed 05:26:00 AM 53.5314 -14.3396 100° East  Level FlightAware Approximate
Wed 05:26:48 AM 53.9120 -13.8670 106° East 530 610 33,000  Level FlightAware ADS-B
Wed 05:27:28 AM 53.8830 -13.6990 106° East 530 610 33,000  Level FlightAware ADS-B
Wed 05:28:08 AM 53.8550 -13.5400 107° East 528 608 33,000  Level FlightAware ADS-B
Wed 05:28:48 AM 53.8280 -13.3820 106° East 527 606 33,000  Level FlightAware ADS-B
Wed 05:29:33 AM 53.7950 -13.2030 107° East 528 608 33,000  Level FlightAware ADS-B
Wed 05:30:13 AM 53.7670 -13.0410 106° East 527 606 33,000  Level FlightAware ADS-B
Wed 05:30:58 AM 53.7350 -12.8640 107° East 526 605 33,000  Level FlightAware ADS-B
Wed 05:31:38 AM 53.7070 -12.7140 107° East 526 605 33,000  Level FlightAware ADS-B
Wed 05:32:23 AM 53.6740 -12.5340 107° East 525 604 33,000  Level FlightAware ADS-B
Wed 05:33:03 AM 53.6450 -12.3770 107° East 524 603 33,000  Level FlightAware ADS-B
Wed 05:33:43 AM 53.6160 -12.2210 107° East 523 602 33,000  Level FlightAware ADS-B
Wed 05:34:18 AM 53.5910 -12.0890 108° East 526 605 33,000  Level FlightAware ADS-B
Wed 05:35:48 AM 53.5250 -11.7450 108° East 528 608 33,000  Level FlightAware ADS-B
Wed 05:36:18 AM 53.5030 -11.6320 108° East 528 608 33,000  Level FlightAware ADS-B
Wed 05:36:58 AM 53.4720 -11.4730 108° East 530 610 33,000  Level FlightAware ADS-B
Wed 05:37:43 AM 53.4380 -11.2970 108° East 530 610 33,000  Level FlightAware ADS-B
Wed 05:38:23 AM 53.4060 -11.1370 108° East 528 608 33,000  Level FlightAware ADS-B
Wed 05:39:08 AM 53.3700 -10.9580 109° East 529 609 33,000  Level FlightAware ADS-B
Wed 05:39:48 AM 53.3380 -10.7990 109° East 528 608 33,000  Level FlightAware ADS-B
Wed 05:40:28 AM 53.3070 -10.6470 109° East 528 608 33,000  Level FlightAware ADS-B
Wed 05:41:13 AM 53.2710 -10.4690 109° East 529 609 33,000  Level FlightAware ADS-B
Wed 05:41:53 AM 53.2390 -10.3140 109° East 530 610 33,000  Level FlightAware ADS-B
Wed 05:42:33 AM 53.2060 -10.1550 109° East 530 610 33,000  Level FlightAware ADS-B
Wed 05:45:00 AM 53.1151 -9.6034 105° East  Level Estimated
Wed 05:45:23 AM 53.0690 -9.5120 105° East 536 617 33,000  Level FlightAware ADS-B
Wed 05:46:03 AM 53.0350 -9.3530 110° East 536 617 33,000  Level FlightAware ADS-B
Wed 05:46:48 AM 52.9960 -9.1750 110° East 535 616 33,000  Level FlightAware ADS-B
Wed 05:47:28 AM 52.9620 -9.0240 110° East 535 616 33,000 -1,579 Level FlightAware ADS-B
Wed 05:47:45 AM 52.9439 -8.9377 110° East 490 564 31,500 -2,571 Descending FlightAware UK
Wed 05:48:03 AM 52.9283 -8.8680 110° East 490 564 31,500 3,913 Level FlightAware UK
Wed 05:48:08 AM 52.9290 -8.8740 110° East 535 616 33,000  Climbing FlightAware ADS-B
Wed 05:48:27 AM 52.9077 -8.7755 110° East 490 564 31,500 -2,432 Descending FlightAware UK
Wed 05:48:45 AM 52.8920 -8.7058 110° East 490 564 31,500 3,462 Level FlightAware UK
Wed 05:48:53 AM 52.8880 -8.6920 110° East 536 617 33,000  Climbing FlightAware ADS-B
Wed 05:49:09 AM 52.8713 -8.6132 110° East 490 564 31,500 -2,647 Descending FlightAware UK
Wed 05:49:27 AM 52.8555 -8.5439 111° Southeast 492 566 31,500 3,750 Level FlightAware UK
Wed 05:49:33 AM 52.8530 -8.5380 111° Southeast 536 617 33,000  Climbing FlightAware ADS-B
Wed 05:49:51 AM 52.8344 -8.4513 111° Southeast 492 566 31,500 -2,500 Descending FlightAware UK
Wed 05:50:09 AM 52.8186 -8.3818 111° Southeast 492 566 31,500 3,333 Level FlightAware UK
Wed 05:50:18 AM 52.8130 -8.3610 111° Southeast 536 617 33,000  Climbing FlightAware ADS-B
Wed 05:50:33 AM 52.7973 -8.2885 111° Southeast 492 566 31,500 -2,727 Descending FlightAware UK
Wed 05:50:51 AM 52.7815 -8.2192 111° Southeast 492 566 31,500 3,600 Level FlightAware UK
Wed 05:50:58 AM 52.7770 -8.2030 111° Southeast 539 620 33,000  Climbing FlightAware ADS-B
Wed 05:51:15 AM 52.7604 -8.1269 111° Southeast 490 564 31,500 -2,571 Descending FlightAware UK
Wed 05:51:33 AM 52.7445 -8.0578 111° Southeast 490 564 31,500 5,000 Level FlightAware UK
Wed 05:51:33 AM 52.7480 -8.0770 111° Southeast 539 620 33,000  Climbing FlightAware ADS-B
Wed 05:51:51 AM 52.7285 -7.9888 111° Southeast 488 562 31,500 -2,500 Descending FlightAware UK
Wed 05:52:09 AM 52.7124 -7.9197 111° Southeast 488 562 31,500 3,333 Level FlightAware UK
Wed 05:52:18 AM 52.7080 -7.9040 111° Southeast 542 624 33,000  Climbing FlightAware ADS-B
Wed 05:52:33 AM 52.6908 -7.8274 111° Southeast 488 562 31,500 -2,727 Descending FlightAware UK
Wed 05:52:51 AM 52.6746 -7.7582 111° Southeast 490 564 31,500 3,000 Level FlightAware UK
Wed 05:53:03 AM 52.6680 -7.7310 111° Southeast 543 625 33,000  Climbing FlightAware ADS-B
Wed 05:53:21 AM 52.6475 -7.6426 111° Southeast 492 566 31,500 -2,500 Descending FlightAware UK
Wed 05:53:39 AM 52.6312 -7.5732 111° Southeast 492 566 31,500 3,333 Level FlightAware UK
Wed 05:53:48 AM 52.6260 -7.5530 111° Southeast 545 627 33,000  Climbing FlightAware ADS-B
Wed 05:54:03 AM 52.6091 -7.4807 111° Southeast 490 564 31,500 -2,727 Descending FlightAware UK
Wed 05:54:21 AM 52.5924 -7.4114 112° Southeast 490 564 31,500 3,600 Level FlightAware UK
Wed 05:54:28 AM 52.5880 -7.3950 112° Southeast 546 628 33,000  Climbing FlightAware ADS-B
Wed 05:54:45 AM 52.5702 -7.3187 112° Southeast 494 568 31,500 -2,571 Descending FlightAware UK
Wed 05:55:03 AM 52.5534 -7.2494 112° Southeast 494 568 31,500 3,214 Level FlightAware UK
Wed 05:55:13 AM 52.5470 -7.2250 112° Southeast 547 629 33,000  Climbing FlightAware ADS-B
Wed 05:55:28 AM 52.5308 -7.1560 112° Southeast 494 568 31,500 -2,727 Descending FlightAware UK
Wed 05:55:46 AM 52.5140 -7.0864 112° Southeast 494 568 31,500 3,600 Level FlightAware UK
Wed 05:55:53 AM 52.5100 -7.0700 112° Southeast 548 631 33,000  Climbing FlightAware ADS-B
Wed 05:56:10 AM 52.4915 -6.9938 112° Southeast 492 566 31,500 -2,571 Descending FlightAware UK
Wed 05:56:28 AM 52.4745 -6.9243 112° Southeast 492 566 31,500 3,214 Level FlightAware UK
Wed 05:56:38 AM 52.4670 -6.8930 112° Southeast 550 633 33,000  Climbing FlightAware ADS-B
Wed 05:56:58 AM 52.4462 -6.8084 112° Southeast 492 566 31,500 -2,368 Descending FlightAware UK
Wed 05:57:16 AM 52.4291 -6.7389 112° Southeast 492 566 31,500 4,500 Level FlightAware UK
Wed 05:57:18 AM 52.4280 -6.7380 112° Southeast 549 632 33,000  Climbing FlightAware ADS-B
Wed 05:57:34 AM 52.4120 -6.6695 112° Southeast 496 571 31,500 -2,647 Descending FlightAware UK
Wed 05:57:52 AM 52.3950 -6.6000 112° Southeast 492 566 31,500 3,103 Level FlightAware UK
Wed 05:58:03 AM 52.3860 -6.5650 112° Southeast 549 632 33,000  Climbing FlightAware ADS-B
Wed 05:58:22 AM 52.3663 -6.4845 112° Southeast 494 568 31,500  Descending FlightAware UK
Wed 05:58:38 AM 52.3520 -6.4310 112° Southeast 550 633 33,000  Climbing FlightAware ADS-B
Wed 05:58:40 AM 52.3489 -6.4153 112° Southeast 492 566 31,500 -4,500 Descending FlightAware UK
Wed 05:58:58 AM 52.3315 -6.3461 112° Southeast 492 566 31,500  Level FlightAware UK
Wed 05:59:16 AM 52.3141 -6.2769 112° Southeast 492 566 31,500 3,000 Level FlightAware UK
Wed 05:59:28 AM 52.3040 -6.2380 112° Southeast 551 634 33,000  Climbing FlightAware ADS-B
Wed 05:59:52 AM 52.2794 -6.1385 112° Southeast 494 568 31,500  Descending FlightAware UK
Wed 06:00:03 AM 52.2750 -6.1190 112° Southeast 551 634 33,000  Climbing FlightAware ADS-B
Wed 06:00:22 AM 52.2503 -6.0232 112° Southeast 492 566 31,500 -2,432 Descending FlightAware UK
Wed 06:00:40 AM 52.2324 -5.9534 113° Southeast 492 566 31,500 3,462 Level FlightAware UK
Wed 06:00:48 AM 52.2280 -5.9350 113° Southeast 552 635 33,000  Climbing FlightAware ADS-B
Wed 06:01:10 AM 52.2032 -5.8382 113° Southeast 492 566 31,500  Descending FlightAware UK
Wed 06:01:33 AM 52.1840 -5.7660 113° Southeast 553 636 33,000  Climbing FlightAware ADS-B
Wed 06:01:58 AM 52.1556 -5.6545 113° Southeast 494 568 31,500  Descending FlightAware UK
Wed 06:02:13 AM 52.1430 -5.6050 113° Southeast 552 635 33,000  Climbing FlightAware ADS-B
Wed 06:02:28 AM 52.1259 -5.5397 113° Southeast 494 568 31,500 -2,727 Descending FlightAware UK
Wed 06:02:46 AM 52.1080 -5.4709 113° Southeast 494 568 31,500 3,000 Level FlightAware UK
Wed 06:02:58 AM 52.1020 -5.4480 113° Southeast 552 635 33,000 1,731 Climbing FlightAware ADS-B
Wed 06:03:38 AM 52.0620 -5.2960 113° Southeast 552 635 33,000 -1,364 Level FlightAware ADS-B
Wed 06:04:04 AM 52.0323 -5.1713 113° Southeast 494 568 31,500  Descending FlightAware UK
Wed 06:04:18 AM 52.0240 -5.1300 113° Southeast 548 631 33,000  Climbing FlightAware ADS-B
Wed 06:04:34 AM 52.0105 -5.0529 113° Southeast 494 568 31,500 -2,647 Descending FlightAware UK
Wed 06:04:52 AM 52.0007 -4.9815 103° East 494 568 31,500 3,103 Level FlightAware UK
Wed 06:05:03 AM 51.9970 -4.9510 103° East 543 625 33,000  Climbing FlightAware ADS-B
Wed 06:05:28 AM 51.9837 -4.8377 103° East 494 568 31,500  Descending FlightAware UK
Wed 06:05:43 AM 51.9780 -4.7870 103° East 544 626 33,000 1,636 Climbing FlightAware ADS-B
Wed 06:06:23 AM 51.9580 -4.6320 102° East 544 626 33,000 -1,304 Level FlightAware ADS-B
Wed 06:06:52 AM 51.9391 -4.5033 102° East 492 566 31,500  Descending FlightAware UK
Wed 06:07:08 AM 51.9310 -4.4570 102° East 546 628 33,000  Climbing FlightAware ADS-B
Wed 06:07:34 AM 51.9125 -4.3365 102° East 488 562 31,500  Descending FlightAware UK
Wed 06:07:43 AM 51.9090 -4.3190 102° East 544 626 33,000  Climbing FlightAware ADS-B
Wed 06:08:04 AM 51.8935 -4.2183 102° East 486 559 31,500  Descending FlightAware UK
Wed 06:08:33 AM 51.8770 -4.1140 102° East 549 632 33,000  Climbing FlightAware ADS-B
Wed 06:08:58 AM 51.8596 -4.0041 102° East 492 566 31,500  Descending FlightAware UK
Wed 06:09:13 AM 51.8530 -3.9620 102° East 552 635 33,000  Climbing FlightAware ADS-B
Wed 06:09:28 AM 51.8407 -3.8842 102° East 494 568 31,500  Descending FlightAware UK
Wed 06:09:52 AM 51.8254 -3.7907 102° East 552 635 33,000 1,286 Climbing FlightAware ADS-B
Wed 06:10:38 AM 51.7960 -3.6079 105° East 552 635 33,000  Level FlightAware ADS-B
Wed 06:11:10 AM 51.7756 -3.4808 104° East 550 633 33,000 -1,765 Level FlightAware ADS-B
Wed 06:11:29 AM 51.7636 -3.4052 104° East 488 562 31,500 -2,093 Descending FlightAware UK
Wed 06:11:53 AM 51.7479 -3.3104 105° East 486 559 31,500 2,813 Level FlightAware UK
Wed 06:12:01 AM 51.7427 -3.2788 105° East 549 632 33,000 2,308 Climbing FlightAware ADS-B
Wed 06:12:32 AM 51.7227 -3.1599 105° East 554 638 33,000  Level FlightAware ADS-B
Wed 06:13:02 AM 51.7028 -3.0362 105° East 554 638 33,000  Level FlightAware ADS-B
Wed 06:13:34 AM 51.6812 -2.9092 105° East 554 638 33,000  Level FlightAware ADS-B
Wed 06:14:06 AM 51.6594 -2.7820 105° East 556 640 33,000  Level FlightAware ADS-B
Wed 06:14:37 AM 51.6386 -2.6584 105° East 556 640 33,000 -1,698 Level FlightAware ADS-B
Wed 06:14:59 AM 51.6235 -2.5690 105° East 494 568 31,500  Descending FlightAware UK
Wed 06:15:08 AM 51.6174 -2.5346 105° East 557 641 33,000  Climbing FlightAware ADS-B
Wed 06:15:23 AM 51.6111 -2.4714 105° East 494 568 31,500  Descending FlightAware UK
Wed 06:15:39 AM 51.6054 -2.4094 105° East 551 634 33,000 1,957 Climbing FlightAware ADS-B
Wed 06:16:09 AM 51.5950 -2.2878 98° East 551 634 33,000  Level FlightAware ADS-B
Wed 06:16:41 AM 51.5839 -2.1625 98° East 552 635 33,000  Level FlightAware ADS-B
Wed 06:17:14 AM 51.5717 -2.0287 98° East 553 636 33,000 -1,837 Level FlightAware ADS-B
Wed 06:17:30 AM 51.5657 -1.9596 98° East 494 568 31,500  Descending FlightAware UK
Wed 06:17:44 AM 51.5601 -1.9029 98° East 553 636 33,000  Climbing FlightAware ADS-B
Wed 06:18:00 AM 51.5541 -1.8379 98° East 494 568 31,500  Descending FlightAware UK
Wed 06:18:15 AM 51.5479 -1.7773 98° East 554 638 33,000  Climbing FlightAware ADS-B
Wed 06:18:36 AM 51.5396 -1.6911 98° East 494 568 31,500  Descending FlightAware UK
Wed 06:18:46 AM 51.5355 -1.6514 98° East 555 639 33,000 2,143 Climbing FlightAware ADS-B
Wed 06:19:18 AM 51.5226 -1.5219 99° East 554 638 33,000  Level FlightAware ADS-B
Wed 06:19:48 AM 51.5100 -1.4002 99° East 554 638 33,000 -1,875 Level FlightAware ADS-B
Wed 06:20:06 AM 51.5027 -1.3254 99° East 494 568 31,500  Descending FlightAware UK
Wed 06:20:19 AM 51.4974 -1.2787 99° East 555 639 33,000 2,045 Climbing FlightAware ADS-B
Wed 06:20:50 AM 51.4838 -1.1494 100° East 556 640 33,000 -1,698 Level FlightAware ADS-B
Wed 06:21:12 AM 51.4725 -1.0580 100° East 494 568 31,500  Descending FlightAware UK
Wed 06:21:21 AM 51.4680 -1.0243 100° East 556 640 33,000 2,250 Climbing FlightAware ADS-B
Wed 06:21:52 AM 51.4520 -0.8994 102° East 556 640 33,000 -1,765 Level FlightAware ADS-B
Wed 06:22:12 AM 51.4415 -0.8163 102° East 496 571 31,500  Descending FlightAware UK
Wed 06:22:23 AM 51.4362 -0.7748 102° East 556 640 33,000 2,195 Climbing FlightAware ADS-B
Wed 06:22:53 AM 51.4205 -0.6538 102° East 555 639 33,000  Level FlightAware ADS-B
Wed 06:23:24 AM 51.4047 -0.5335 102° East 555 639 33,000 -1,800 Level FlightAware ADS-B
Wed 06:23:43 AM 51.3946 -0.4523 102° East 496 571 31,500  Descending FlightAware UK
Wed 06:23:56 AM 51.3881 -0.4052 102° East 553 636 33,000 2,093 Climbing FlightAware ADS-B
Wed 06:24:26 AM 51.3725 -0.2811 101° East 553 636 33,000 -1,698 Level FlightAware ADS-B
Wed 06:24:49 AM 51.3604 -0.1882 101° East 496 571 31,500  Descending FlightAware UK
Wed 06:24:56 AM 51.3565 -0.1611 101° East 553 636 33,000 2,308 Climbing FlightAware ADS-B
Wed 06:25:28 AM 51.3401 -0.0373 102° East 552 635 33,000  Level FlightAware ADS-B
Wed 06:25:58 AM 51.3243 0.0820 102° East 550 633 33,000 -2,000 Level FlightAware ADS-B
Wed 06:26:13 AM 51.3165 0.1474 102° East 496 571 31,500  Descending FlightAware UK
Wed 06:26:29 AM 51.3094 0.2052 102° East 549 632 33,000 1,837 Climbing FlightAware ADS-B
Wed 06:27:02 AM 51.2936 0.3400 101° East 547 629 33,000 -1,607 Level FlightAware ADS-B
Wed 06:27:25 AM 51.2823 0.4333 101° East 500 575 31,500  Descending FlightAware UK
Wed 06:27:33 AM 51.2784 0.4621 101° East 543 625 33,000 3,462 Climbing FlightAware ADS-B
Wed 06:27:51 AM 51.2701 0.5328 101° East 539 620 33,000 -2,250 Level FlightAware ADS-B
Wed 06:28:13 AM 51.2637 0.6211 101° East 500 575 31,500  Descending FlightAware UK
Wed 06:28:22 AM 51.2615 0.6536 101° East 531 611 33,000  Climbing FlightAware ADS-B
Wed 06:28:43 AM 51.2562 0.7385 101° East 498 573 31,500  Descending FlightAware UK
Wed 06:28:52 AM 51.2541 0.7698 101° East 528 608 33,000 2,000 Climbing FlightAware ADS-B
Wed 06:29:28 AM 51.2460 0.8890 96° East 527 606 33,000  Level FlightAware ADS-B
Wed 06:29:39 AM 51.2415 0.9511 97° East 527 606 33,000 -3,214 Level FlightAware ADS-B
Wed 06:29:56 AM 51.2367 1.0167 97° East 496 571 31,500  Descending FlightAware UK
Wed 06:30:13 AM 51.2330 1.0660 97° East 524 603 33,000 1,731 Climbing FlightAware ADS-B
Wed 06:30:48 AM 51.2220 1.1920 98° East 522 601 33,000 -1,636 Level FlightAware ADS-B
Wed 06:31:08 AM 51.2143 1.2924 98° East 498 573 31,500 -2,045 Descending FlightAware UK
Wed 06:31:32 AM 51.2066 1.3834 98° East 494 568 31,500 3,000 Level FlightAware UK
Wed 06:31:38 AM 51.2060 1.3820 98° East 519 597 33,000 167 Climbing FlightAware ADS-B
Wed 06:32:08 AM 51.1950 1.5195 98° East 498 573 31,600 450 Descending FlightAware UK
Wed 06:32:18 AM 51.1930 1.5410 98° East 520 598 33,300 1,500 Climbing FlightAware ADS-B
Wed 06:32:44 AM 51.1836 1.6560 98° East 498 573 32,500 1,650 Descending FlightAware UK
Wed 06:32:58 AM 51.1800 1.6970 98° East 518 596 34,400 1,250 Climbing FlightAware ADS-B
Wed 06:33:32 AM 51.1597 1.8370 98° East 498 573 33,500 800 Descending FlightAware UK
Wed 06:33:43 AM 51.1540 1.8690 98° East 526 605 35,000  Climbing FlightAware ADS-B
Wed 06:34:02 AM 51.1417 1.9495 98° East 500 575 33,500  Descending FlightAware UK
Wed 06:34:18 AM 51.1350 1.9890 104° East 523 602 35,000  Climbing FlightAware ADS-B
Wed 06:34:20 AM 51.1309 2.0166 104° East 500 575 33,500 -2,813 Descending FlightAware UK
Wed 06:34:50 AM 51.1136 2.1291 104° East 494 568 33,500 2,093 Level FlightAware UK
Wed 06:35:03 AM 51.1080 2.1640 104° East 519 597 35,000  Climbing FlightAware ADS-B
Wed 06:35:20 AM 51.0972 2.2404 104° East 490 564 33,500 -2,571 Descending FlightAware UK
Wed 06:35:38 AM 51.0874 2.3070 103° East 488 562 33,500 3,214 Level FlightAware UK
Wed 06:35:48 AM 51.0830 2.3300 103° East 518 596 35,000 1,636 Climbing FlightAware ADS-B
Wed 06:36:33 AM 51.0630 2.4720 103° East 521 600 35,000 -1,452 Level FlightAware ADS-B
Wed 06:36:50 AM 51.0475 2.5740 103° East 492 566 33,500  Descending FlightAware UK
Wed 06:37:08 AM 51.0440 2.5940 103° East 521 600 35,000  Climbing FlightAware ADS-B
Wed 06:37:26 AM 51.0271 2.7077 103° East 494 568 33,500 -2,143 Descending FlightAware UK
Wed 06:37:50 AM 51.0130 2.7969 104° East 494 568 33,500 2,813 Level FlightAware UK
Wed 06:37:58 AM 51.0100 2.8130 104° East 523 602 35,000 1,875 Climbing FlightAware ADS-B
Wed 06:38:38 AM 50.9860 2.9580 105° East 523 602 35,000 -1,286 Level FlightAware ADS-B
Wed 06:39:08 AM 50.9647 3.0865 105° East 498 573 33,500  Descending FlightAware UK
Wed 06:39:13 AM 50.9640 3.0920 105° East 524 603 35,000 5,000 Climbing FlightAware ADS-B
Wed 06:39:26 AM 50.9540 3.1512 105° East 524 603 35,000 -2,903 Level FlightAware ADS-B
Wed 06:39:44 AM 50.9426 3.2208 105° East 496 571 33,500  Descending FlightAware UK
Wed 06:40:00 AM 50.9333 3.2768 105° East 523 602 35,000 1,667 Climbing FlightAware ADS-B
Wed 06:40:38 AM 50.9097 3.4175 105° East 523 602 35,000 -1,607 Level FlightAware ADS-B
Wed 06:40:56 AM 50.8981 3.4872 105° East 498 573 33,500  Descending FlightAware UK
Wed 06:41:28 AM 50.8830 3.5770 105° East 523 602 35,000  Climbing FlightAware ADS-B
Wed 06:42:02 AM 50.8564 3.7310 105° East 502 578 33,500  Descending FlightAware UK
Wed 06:42:08 AM 50.8550 3.7350 105° East 522 601 35,000  Climbing FlightAware ADS-B
Wed 06:42:32 AM 50.8378 3.8415 105° East 498 573 33,500  Descending FlightAware UK
Wed 06:42:48 AM 50.8310 3.8780 105° East 519 597 35,000  Climbing FlightAware ADS-B
Wed 06:43:14 AM 50.8115 3.9951 105° East 500 575 33,500  Descending FlightAware UK
Wed 06:43:33 AM 50.8010 4.0530 105° East 518 596 35,000  Climbing FlightAware ADS-B
Wed 06:44:08 AM 50.7769 4.1914 105° East 500 575 33,500  Descending FlightAware UK
Wed 06:44:28 AM 50.7680 4.2430 105° East 519 597 35,000  Climbing FlightAware ADS-B
Wed 06:44:57 AM 50.7463 4.3670 105° East 498 573 33,500  Descending FlightAware UK
Wed 06:45:08 AM 50.7410 4.3920 105° East 517 595 35,000 1,765 Climbing FlightAware ADS-B
Wed 06:45:48 AM 50.7130 4.5360 107° East 519 597 35,000  Level FlightAware ADS-B
Wed 06:46:33 AM 50.6630 4.6880 117° Southeast 523 602 35,000  Level FlightAware ADS-B
Wed 06:47:18 AM 50.6030 4.8350 123° Southeast 522 601 35,000  Level FlightAware ADS-B
Wed 06:47:58 AM 50.5510 4.9620 123° Southeast 521 600 35,000  Level FlightAware ADS-B
Wed 06:48:38 AM 50.4990 5.0850 124° Southeast 519 597 35,000  Level FlightAware ADS-B
Wed 06:49:23 AM 50.4400 5.2270 123° Southeast 516 594 35,000  Level FlightAware ADS-B
Wed 06:50:03 AM 50.3880 5.3510 123° Southeast 514 592 35,000  Level FlightAware ADS-B
Wed 06:50:48 AM 50.3290 5.4940 123° Southeast 511 588 35,000  Level FlightAware ADS-B
Wed 06:51:28 AM 50.2810 5.6070 124° Southeast 509 586 35,000  Level FlightAware ADS-B
Wed 06:52:13 AM 50.2150 5.7600 124° Southeast 506 582 35,000  Level FlightAware ADS-B
Wed 06:52:53 AM 50.1670 5.8720 124° Southeast 506 582 35,000  Level FlightAware ADS-B
Wed 06:53:33 AM 50.1140 5.9960 124° Southeast 505 581 35,000  Level FlightAware ADS-B
Wed 06:54:18 AM 50.0530 6.1370 124° Southeast 503 579 35,000  Level FlightAware ADS-B
Wed 06:54:58 AM 50.0060 6.2450 124° Southeast 502 578 35,000  Level FlightAware ADS-B
Wed 06:55:33 AM 49.9560 6.3490 127° Southeast 501 577 35,000  Level FlightAware ADS-B
Wed 06:56:23 AM 49.8850 6.4960 127° Southeast 500 575 35,000  Level FlightAware ADS-B
Wed 06:57:18 AM 49.8140 6.6450 126° Southeast 496 571 35,000  Level FlightAware ADS-B
Wed 06:58:03 AM 49.7560 6.7650 127° Southeast 494 568 35,000  Level FlightAware ADS-B
Wed 06:58:33 AM 49.7090 6.8630 127° Southeast 494 568 35,000  Level FlightAware ADS-B
Wed 06:59:18 AM 49.6490 6.9880 127° Southeast 495 570 35,000  Level FlightAware ADS-B
Wed 07:00:08 AM 49.5830 7.1220 127° Southeast 495 570 35,000  Level FlightAware ADS-B
Wed 07:00:43 AM 49.5340 7.2210 127° Southeast 495 570 35,000  Level FlightAware ADS-B
Wed 07:01:28 AM 49.4670 7.3570 127° Southeast 493 567 35,000  Level FlightAware ADS-B
Wed 07:02:13 AM 49.4020 7.4890 127° Southeast 493 567 35,000  Level FlightAware ADS-B
Wed 07:02:53 AM 49.3490 7.5960 127° Southeast 494 568 35,000  Level FlightAware ADS-B
Wed 07:03:38 AM 49.2810 7.7310 128° Southeast 498 573 35,000  Level FlightAware ADS-B
Wed 07:04:18 AM 49.2270 7.8400 127° Southeast 499 574 35,000  Level FlightAware ADS-B
Wed 07:04:58 AM 49.1730 7.9490 127° Southeast 499 574 35,000  Level FlightAware ADS-B
Wed 07:05:43 AM 49.1110 8.0680 128° Southeast 499 574 35,000  Level FlightAware ADS-B
Wed 07:06:23 AM 49.0560 8.1770 128° Southeast 499 574 35,000  Level FlightAware ADS-B
Wed 07:06:58 AM 49.0050 8.2770 128° Southeast 492 566 35,000 282 Level FlightAware ADS-B
Wed 07:07:48 AM 48.9310 8.4040 132° Southeast 494 568 35,400 533 Climbing FlightAware ADS-B
Wed 07:08:28 AM 48.8630 8.5120 134° Southeast 510 587 35,800 424 Climbing FlightAware ADS-B
Wed 07:09:13 AM 48.7880 8.6320 133° Southeast 514 592 36,000 141 Climbing FlightAware ADS-B
Wed 07:09:53 AM 48.7220 8.7350 134° Southeast 511 588 36,000  Level FlightAware ADS-B
Wed 07:10:38 AM 48.6490 8.8480 134° Southeast 509 586 36,000  Level FlightAware ADS-B
Wed 07:11:18 AM 48.5820 8.9550 133° Southeast 506 582 36,000  Level FlightAware ADS-B
Wed 07:12:03 AM 48.5100 9.0670 134° Southeast 506 582 36,000  Level FlightAware ADS-B
Wed 07:12:38 AM 48.4520 9.1580 134° Southeast 506 582 36,000  Level FlightAware ADS-B
Wed 07:13:23 AM 48.3810 9.2670 134° Southeast 506 582 36,000  Level FlightAware ADS-B
Wed 07:14:08 AM 48.3060 9.3820 134° Southeast 505 581 36,000  Level FlightAware ADS-B
Wed 07:14:48 AM 48.2410 9.4820 134° Southeast 498 573 36,000  Level FlightAware ADS-B
Wed 07:15:28 AM 48.1760 9.5830 134° Southeast 496 571 36,000  Level FlightAware ADS-B
Wed 07:16:13 AM 48.0990 9.7020 134° Southeast 501 577 36,000  Level FlightAware ADS-B
Wed 07:16:53 AM 48.0400 9.7940 134° Southeast 495 570 36,000  Level FlightAware ADS-B
Wed 07:17:38 AM 47.9680 9.9030 135° Southeast 495 570 36,000  Level FlightAware ADS-B
Wed 07:18:18 AM 47.9040 10.0020 134° Southeast 502 578 36,000  Level FlightAware ADS-B
Wed 07:19:03 AM 47.8300 10.1140 135° Southeast 503 579 36,000  Level FlightAware ADS-B
Wed 07:19:38 AM 47.7730 10.2000 135° Southeast 503 579 36,000  Level FlightAware ADS-B
Wed 07:20:23 AM 47.7030 10.3060 134° Southeast 504 580 36,000  Level FlightAware ADS-B
Wed 07:21:08 AM 47.6260 10.4220 135° Southeast 503 579 36,000 282 Level FlightAware ADS-B
Wed 07:21:48 AM 47.5610 10.5210 134° Southeast 500 575 36,400 675 Climbing FlightAware ADS-B
Wed 07:22:28 AM 47.5010 10.6140 134° Southeast 508 585 36,900 353 Climbing FlightAware ADS-B
Wed 07:23:13 AM 47.4270 10.7300 133° Southeast 509 586 36,900 71 Level FlightAware ADS-B
Wed 07:23:53 AM 47.3480 10.8180 143° Southeast 505 581 37,000 71 Climbing FlightAware ADS-B
Wed 07:24:38 AM 47.2540 10.8840 155° Southeast 499 574 37,000  Level FlightAware ADS-B
Wed 07:25:18 AM 47.1700 10.9390 156° South 499 574 37,000  Level FlightAware ADS-B
Wed 07:26:03 AM 47.0750 10.9980 157° South 503 579 37,000  Level FlightAware ADS-B
Wed 07:26:43 AM 46.9850 11.0460 160° South 493 567 37,000  Level FlightAware ADS-B
Wed 07:27:23 AM 46.9000 11.0880 161° South 489 563 37,000  Level FlightAware ADS-B
Wed 07:28:08 AM 46.7980 11.1360 162° South 493 567 37,000  Level FlightAware ADS-B
Wed 07:28:48 AM 46.7080 11.1780 162° South 489 563 37,000 75 Level FlightAware ADS-B
Wed 07:29:28 AM 46.6310 11.2150 162° South 489 563 37,100 494 Climbing FlightAware ADS-B
Wed 07:30:13 AM 46.5250 11.2630 163° South 487 560 37,700 635 Climbing FlightAware ADS-B
Wed 07:30:53 AM 46.4360 11.3050 162° South 491 565 38,000 400 Climbing FlightAware ADS-B
Wed 07:31:28 AM 46.3660 11.3590 152° Southeast 505 581 38,200 327 Climbing FlightAware ADS-B
Wed 07:31:48 AM 46.3320 11.4050 137° Southeast 513 590 38,300 300 Climbing FlightAware ADS-B
Wed 07:32:28 AM 46.2700 11.5190 128° Southeast 521 600 38,500 494 Climbing FlightAware ADS-B
Wed 07:33:13 AM 46.2040 11.6390 128° Southeast 516 594 39,000 353 Climbing FlightAware ADS-B
Wed 07:33:53 AM 46.1460 11.7460 128° Southeast 514 592 39,000  Level FlightAware ADS-B
Wed 07:34:38 AM 46.0780 11.8690 129° Southeast 510 587 39,000  Level FlightAware ADS-B
Wed 07:35:23 AM 46.0120 11.9850 129° Southeast 506 582 39,000  Level FlightAware ADS-B
Wed 07:36:03 AM 45.9560 12.0840 129° Southeast 499 574 39,000  Level FlightAware ADS-B
Wed 07:36:43 AM 45.8980 12.1880 129° Southeast 498 573 39,000  Level FlightAware ADS-B
Wed 07:37:28 AM 45.8290 12.3100 129° Southeast 497 572 39,000  Level FlightAware ADS-B
Wed 07:38:08 AM 45.7700 12.4130 129° Southeast 494 568 39,000  Level FlightAware ADS-B
Wed 07:38:48 AM 45.7150 12.5100 129° Southeast 494 568 39,000  Level FlightAware ADS-B
Wed 07:39:33 AM 45.6460 12.6300 129° Southeast 494 568 39,000  Level FlightAware ADS-B
Wed 07:40:13 AM 45.5880 12.7320 129° Southeast 494 568 39,000  Level FlightAware ADS-B
Wed 07:40:58 AM 45.5230 12.8470 129° Southeast 497 572 39,000  Level FlightAware ADS-B
Wed 07:41:38 AM 45.4620 12.9490 130° Southeast 503 579 39,000  Level FlightAware ADS-B
Wed 07:42:18 AM 45.4060 13.0460 129° Southeast 503 579 39,000  Level FlightAware ADS-B
Wed 07:43:03 AM 45.3390 13.1680 128° Southeast 501 577 39,000  Level FlightAware ADS-B
Wed 07:43:43 AM 45.2860 13.2740 125° Southeast 508 585 39,000  Level FlightAware ADS-B
Wed 07:44:28 AM 45.2230 13.4000 125° Southeast 505 581 39,000  Level FlightAware ADS-B
Wed 07:45:03 AM 45.1780 13.4890 126° Southeast 504 580 39,000  Level FlightAware ADS-B
Wed 07:45:48 AM 45.1170 13.6080 126° Southeast 505 581 39,000  Level FlightAware ADS-B
Wed 07:46:33 AM 45.0510 13.7370 126° Southeast 506 582 39,000  Level FlightAware ADS-B
Wed 07:47:13 AM 44.9950 13.8450 126° Southeast 506 582 39,000  Level FlightAware ADS-B
Wed 07:47:58 AM 44.9340 13.9630 126° Southeast 507 583 39,000  Level FlightAware ADS-B
Wed 07:48:38 AM 44.8790 14.0690 126° Southeast 507 583 39,000  Level FlightAware ADS-B
Wed 07:49:18 AM 44.8260 14.1740 125° Southeast 508 585 39,000  Level FlightAware ADS-B
Wed 07:50:18 AM 44.7400 14.3390 126° Southeast 510 587 39,000  Level FlightAware ADS-B
Wed 07:50:48 AM 44.6960 14.4230 126° Southeast 516 594 39,000  Level FlightAware ADS-B
Wed 07:51:33 AM 44.6360 14.5390 126° Southeast 516 594 39,000  Level FlightAware ADS-B
Wed 07:52:18 AM 44.5680 14.6690 126° Southeast 518 596 39,000  Level FlightAware ADS-B
Wed 07:52:58 AM 44.5150 14.7720 126° Southeast 519 597 39,000  Level FlightAware ADS-B
Wed 07:53:48 AM 44.4440 14.9040 127° Southeast 519 597 39,000  Level FlightAware ADS-B
Wed 07:54:28 AM 44.3890 15.0090 126° Southeast 519 597 39,000  Level FlightAware ADS-B
Wed 07:55:23 AM 44.3150 15.1510 126° Southeast 519 597 39,000  Level FlightAware ADS-B
Wed 07:56:18 AM 44.2300 15.3080 127° Southeast 516 594 39,000  Level FlightAware ADS-B
Wed 07:57:03 AM 44.1630 15.4310 127° Southeast 516 594 39,000  Level FlightAware ADS-B
Wed 07:57:38 AM 44.1190 15.5160 126° Southeast 516 594 39,000  Level FlightAware ADS-B
Wed 07:58:28 AM 44.0590 15.6300 126° Southeast 516 594 39,000  Level FlightAware ADS-B
Wed 07:59:08 AM 43.9750 15.7780 128° Southeast 517 595 39,000  Level FlightAware ADS-B
Wed 07:59:48 AM 43.9210 15.8790 127° Southeast 516 594 39,000  Level FlightAware ADS-B
Wed 08:00:33 AM 43.8550 15.9970 128° Southeast 515 593 39,000  Level FlightAware ADS-B
Wed 08:01:13 AM 43.7970 16.1020 127° Southeast 517 595 39,000  Level FlightAware ADS-B
Wed 08:01:58 AM 43.7300 16.2260 127° Southeast 518 596 39,000  Level FlightAware ADS-B
Wed 08:02:38 AM 43.6740 16.3290 127° Southeast 520 598 39,000  Level FlightAware ADS-B
Wed 08:03:18 AM 43.6150 16.4380 127° Southeast 520 598 39,000  Level FlightAware ADS-B
Wed 08:04:03 AM 43.5500 16.5510 128° Southeast 519 597 39,000  Level FlightAware ADS-B
Wed 08:04:38 AM 43.4960 16.6470 128° Southeast 517 595 39,000  Level FlightAware ADS-B
Wed 08:05:28 AM 43.4260 16.7720 128° Southeast 514 592 39,000  Level FlightAware ADS-B
Wed 08:06:03 AM 43.3740 16.8640 128° Southeast 511 588 39,000  Level FlightAware ADS-B
Wed 08:06:48 AM 43.3110 16.9760 128° Southeast 508 585 39,000  Level FlightAware ADS-B
Wed 08:07:33 AM 43.2440 17.0930 128° Southeast 509 586 39,000  Level FlightAware ADS-B
Wed 08:08:13 AM 43.1860 17.1940 128° Southeast 509 586 39,000  Level FlightAware ADS-B
Wed 08:08:58 AM 43.1190 17.3110 128° Southeast 507 583 39,000  Level FlightAware ADS-B
Wed 08:09:38 AM 43.0620 17.4090 129° Southeast 506 582 39,000  Level FlightAware ADS-B
Wed 08:10:18 AM 43.0040 17.5100 128° Southeast 508 585 39,000  Level FlightAware ADS-B
Wed 08:11:03 AM 42.9380 17.6230 129° Southeast 511 588 39,000  Level FlightAware ADS-B
Wed 08:11:43 AM 42.8800 17.7220 129° Southeast 514 592 39,000  Level FlightAware ADS-B
Wed 08:12:28 AM 42.8120 17.8390 128° Southeast 516 594 39,000  Level FlightAware ADS-B
Wed 08:13:08 AM 42.7560 17.9350 128° Southeast 518 596 39,000  Level FlightAware ADS-B
Wed 08:13:48 AM 42.6940 18.0400 129° Southeast 519 597 39,000  Level FlightAware ADS-B
Wed 08:14:33 AM 42.6260 18.1540 129° Southeast 517 595 39,000  Level FlightAware ADS-B
Wed 08:15:13 AM 42.5660 18.2540 129° Southeast 514 592 39,000  Level FlightAware ADS-B
Wed 08:15:58 AM 42.4910 18.3610 134° Southeast 507 583 39,000  Level FlightAware ADS-B
Wed 08:16:38 AM 42.4290 18.4460 135° Southeast 506 582 39,000  Level FlightAware ADS-B
Wed 08:17:18 AM 42.3580 18.5400 136° Southeast 506 582 39,000  Level FlightAware ADS-B
Wed 08:18:03 AM 42.2850 18.6400 135° Southeast 505 581 39,000  Level FlightAware ADS-B
Wed 08:18:43 AM 42.2190 18.7270 136° Southeast 504 580 39,000  Level FlightAware ADS-B
Wed 08:19:28 AM 42.1410 18.8310 135° Southeast 503 579 39,000  Level FlightAware ADS-B
Wed 08:20:08 AM 42.0680 18.9080 142° Southeast 496 571 39,000  Level FlightAware ADS-B
Wed 08:20:48 AM 41.9950 18.9740 146° Southeast 490 564 39,000  Level FlightAware ADS-B
Wed 08:21:33 AM 41.9120 19.0440 148° Southeast 494 568 39,000  Level FlightAware ADS-B
Wed 08:22:13 AM 41.8320 19.1140 147° Southeast 498 573 39,000  Level FlightAware ADS-B
Wed 08:22:58 AM 41.7420 19.1900 148° Southeast 499 574 39,000  Level FlightAware ADS-B
Wed 08:23:28 AM 41.6870 19.2370 147° Southeast 499 574 39,000  Level FlightAware ADS-B
Wed 08:24:18 AM 41.5880 19.3240 147° Southeast 494 568 39,000  Level FlightAware ADS-B
Wed 08:25:03 AM 41.5040 19.3950 148° Southeast 492 566 39,000  Level FlightAware ADS-B
Wed 08:25:43 AM 41.4300 19.4590 147° Southeast 491 565 39,000  Level FlightAware ADS-B
Wed 08:26:23 AM 41.3510 19.5260 148° Southeast 494 568 39,000  Level FlightAware ADS-B
Wed 08:27:08 AM 41.2660 19.6030 146° Southeast 495 570 39,000  Level FlightAware ADS-B
Wed 08:27:48 AM 41.1870 19.6750 146° Southeast 492 566 39,000  Level FlightAware ADS-B
Wed 08:28:33 AM 41.1060 19.7510 145° Southeast 490 564 39,000  Level FlightAware ADS-B
Wed 08:29:13 AM 41.0340 19.8210 144° Southeast 485 558 39,000  Level FlightAware ADS-B
Wed 08:29:53 AM 40.9620 19.8950 142° Southeast 486 559 39,000  Level FlightAware ADS-B
Wed 08:30:38 AM 40.8810 19.9780 142° Southeast 491 565 39,000  Level FlightAware ADS-B
Wed 08:31:18 AM 40.8090 20.0570 140° Southeast 501 577 39,000  Level FlightAware ADS-B
Wed 08:31:53 AM 40.7480 20.1240 140° Southeast 505 581 39,000  Level FlightAware ADS-B
Wed 08:32:43 AM 40.6650 20.2160 140° Southeast 507 583 39,000  Level FlightAware ADS-B
Wed 08:33:23 AM 40.5970 20.2980 138° Southeast 512 589 39,000  Level FlightAware ADS-B
Wed 08:34:08 AM 40.5190 20.3960 136° Southeast 510 587 39,000  Level FlightAware ADS-B
Wed 08:34:48 AM 40.4530 20.4790 136° Southeast 504 580 39,000  Level FlightAware ADS-B
Wed 08:35:33 AM 40.3770 20.5820 134° Southeast 512 589 39,000  Level FlightAware ADS-B
Wed 08:36:13 AM 40.3130 20.6700 134° Southeast 512 589 39,000  Level FlightAware ADS-B
Wed 08:36:53 AM 40.2460 20.7650 133° Southeast 512 589 39,000  Level FlightAware ADS-B
Wed 08:37:38 AM 40.1730 20.8640 134° Southeast 513 590 39,000  Level FlightAware ADS-B
Wed 08:38:18 AM 40.1080 20.9550 133° Southeast 517 595 39,000  Level FlightAware ADS-B
Wed 08:39:03 AM 40.0330 21.0570 134° Southeast 522 601 39,000  Level FlightAware ADS-B
Wed 08:39:43 AM 39.9660 21.1520 133° Southeast 519 597 39,000  Level FlightAware ADS-B
Wed 08:40:28 AM 39.8940 21.2560 132° Southeast 524 603 39,000  Level FlightAware ADS-B
Wed 08:41:08 AM 39.8310 21.3530 130° Southeast 523 602 39,000  Level FlightAware ADS-B
Wed 08:41:53 AM 39.7580 21.4610 131° Southeast 523 602 39,000  Level FlightAware ADS-B
Wed 08:42:28 AM 39.7010 21.5470 131° Southeast 524 603 39,000  Level FlightAware ADS-B
Wed 08:43:13 AM 39.6280 21.6550 131° Southeast 525 604 39,000  Level FlightAware ADS-B
Wed 08:43:58 AM 39.5510 21.7660 132° Southeast 527 606 39,000  Level FlightAware ADS-B
Wed 08:44:38 AM 39.4860 21.8630 131° Southeast 523 602 39,000  Level FlightAware ADS-B
Wed 08:45:18 AM 39.4220 21.9570 131° Southeast 522 601 39,000  Level FlightAware ADS-B
Wed 08:46:03 AM 39.3510 22.0590 132° Southeast 520 598 39,000  Level FlightAware ADS-B
Wed 08:46:43 AM 39.2870 22.1520 132° Southeast 519 597 39,000  Level FlightAware ADS-B
Wed 08:47:28 AM 39.2120 22.2610 132° Southeast 517 595 39,000  Level FlightAware ADS-B
Wed 08:48:08 AM 39.1490 22.3530 131° Southeast 517 595 39,000  Level FlightAware ADS-B
Wed 08:48:48 AM 39.0860 22.4430 132° Southeast 518 596 39,000  Level FlightAware ADS-B
Wed 08:49:33 AM 39.0150 22.5460 132° Southeast 518 596 39,000  Level FlightAware ADS-B
Wed 08:50:13 AM 38.9510 22.6380 132° Southeast 516 594 39,000  Level FlightAware ADS-B
Wed 08:50:58 AM 38.8790 22.7400 132° Southeast 512 589 39,000  Level FlightAware ADS-B
Wed 08:51:38 AM 38.8140 22.8320 132° Southeast 511 588 39,000  Level FlightAware ADS-B
Wed 08:52:23 AM 38.7450 22.9310 132° Southeast 511 588 39,000  Level FlightAware ADS-B
Wed 08:53:03 AM 38.6810 23.0210 132° Southeast 513 590 39,000  Level FlightAware ADS-B
Wed 08:53:43 AM 38.6160 23.1120 132° Southeast 515 593 39,000  Level FlightAware ADS-B
Wed 08:54:28 AM 38.5450 23.2130 132° Southeast 516 594 39,000  Level FlightAware ADS-B
Wed 08:55:08 AM 38.4810 23.3030 132° Southeast 516 594 39,000  Level FlightAware ADS-B
Wed 08:55:53 AM 38.4090 23.4020 133° Southeast 516 594 39,000  Level FlightAware ADS-B
Wed 08:56:33 AM 38.3450 23.4920 132° Southeast 519 597 39,000  Level FlightAware ADS-B
Wed 08:57:13 AM 38.2790 23.5850 132° Southeast 521 600 39,000  Level FlightAware ADS-B
Wed 08:57:58 AM 38.2050 23.6870 133° Southeast 524 603 39,000  Level FlightAware ADS-B
Wed 08:58:38 AM 38.1390 23.7800 132° Southeast 524 603 39,000  Level FlightAware ADS-B
Wed 08:59:18 AM 38.0720 23.8710 133° Southeast 524 603 39,000  Level FlightAware ADS-B
Wed 09:00:03 AM 38.0040 23.9720 130° Southeast 526 605 39,000  Level FlightAware ADS-B
Wed 09:00:43 AM 37.9430 24.0710 128° Southeast 528 608 39,000  Level FlightAware ADS-B
Wed 09:01:28 AM 37.8730 24.1830 128° Southeast 530 610 39,000  Level FlightAware ADS-B
Wed 09:02:08 AM 37.8130 24.2810 128° Southeast 530 610 39,000  Level FlightAware ADS-B
Wed 09:02:48 AM 37.7550 24.3810 126° Southeast 536 617 39,000  Level FlightAware ADS-B
Wed 09:03:33 AM 37.6940 24.5010 123° Southeast 539 620 39,000  Level FlightAware ADS-B
Wed 09:04:13 AM 37.6410 24.6070 122° Southeast 541 623 39,000  Level FlightAware ADS-B
Wed 09:04:53 AM 37.5850 24.7130 124° Southeast 543 625 39,000  Level FlightAware ADS-B
Wed 09:05:38 AM 37.5240 24.8290 124° Southeast 545 627 39,000  Level FlightAware ADS-B
Wed 09:06:18 AM 37.4670 24.9340 124° Southeast 546 628 39,000  Level FlightAware ADS-B
Wed 09:07:03 AM 37.4040 25.0530 124° Southeast 547 629 39,000  Level FlightAware ADS-B
Wed 09:07:43 AM 37.3460 25.1610 124° Southeast 549 632 39,000  Level FlightAware ADS-B
Wed 09:08:23 AM 37.2910 25.2640 124° Southeast 550 633 39,000  Level FlightAware ADS-B
Wed 09:09:08 AM 37.2280 25.3810 124° Southeast 553 636 39,000  Level FlightAware ADS-B
Wed 09:09:48 AM 37.1710 25.4880 124° Southeast 551 634 39,000  Level FlightAware ADS-B
Wed 09:10:33 AM 37.1050 25.6080 125° Southeast 544 626 39,000  Level FlightAware ADS-B
Wed 09:11:13 AM 37.0490 25.7150 123° Southeast 540 621 39,000  Level FlightAware ADS-B
Wed 09:11:53 AM 36.9920 25.8180 125° Southeast 536 617 39,000  Level FlightAware ADS-B
Wed 09:12:38 AM 36.9320 25.9280 124° Southeast 535 616 39,000  Level FlightAware ADS-B
Wed 09:13:18 AM 36.8790 26.0250 124° Southeast 531 611 39,000  Level FlightAware ADS-B
Wed 09:13:53 AM 36.8260 26.1190 125° Southeast 536 617 39,000  Level FlightAware ADS-B
Wed 09:15:08 AM 36.7200 26.3110 125° Southeast 540 621 39,000  Level FlightAware ADS-B
Wed 09:15:43 AM 36.6720 26.3990 124° Southeast 542 624 39,000  Level FlightAware ADS-B
Wed 09:16:33 AM 36.6020 26.5270 124° Southeast 540 621 39,000  Level FlightAware ADS-B
Wed 09:17:28 AM 36.5230 26.6700 124° Southeast 535 616 39,000  Level FlightAware ADS-B
Wed 09:18:13 AM 36.4640 26.7760 125° Southeast 529 609 39,000  Level FlightAware ADS-B
Wed 09:18:58 AM 36.4210 26.8540 124° Southeast 532 612 39,000 -71 Level FlightAware ADS-B
Wed 09:19:38 AM 36.3560 26.9690 125° Southeast 532 612 38,900 -480 Descending FlightAware ADS-B
Wed 09:20:13 AM 36.2960 27.0750 125° Southeast 541 623 38,400 -780 Descending FlightAware ADS-B
Wed 09:21:18 AM 36.2130 27.2230 125° Southeast 542 624 37,600 -750 Descending FlightAware ADS-B
Wed 09:22:13 AM 36.1270 27.3760 125° Southeast 528 608 36,900 -733 Descending FlightAware ADS-B
Wed 09:22:48 AM 36.0810 27.4570 125° Southeast 522 601 36,500 -675 Descending FlightAware ADS-B
Wed 09:23:33 AM 36.0120 27.5780 125° Southeast 530 610 36,000 -600 Descending FlightAware ADS-B
Wed 09:24:08 AM 35.9740 27.6450 125° Southeast 534 615 35,700 -635 Descending FlightAware ADS-B
Wed 09:24:58 AM 35.9010 27.7740 125° Southeast 544 626 35,100 -467 Descending FlightAware ADS-B
Wed 09:25:38 AM 35.8450 27.8700 126° Southeast 543 625 35,000 -75 Descending FlightAware ADS-B
Wed 09:26:18 AM 35.7860 27.9730 125° Southeast 540 621 35,000  Level FlightAware ADS-B
Wed 09:26:58 AM 35.7330 28.0660 125° Southeast 539 620 35,000  Level FlightAware ADS-B
Wed 09:27:38 AM 35.6710 28.1710 126° Southeast 540 621 35,000  Level FlightAware ADS-B
Wed 09:28:28 AM 35.6050 28.2860 125° Southeast 541 623 35,000  Level FlightAware ADS-B
Wed 09:29:08 AM 35.5490 28.3840 125° Southeast 541 623 35,000  Level FlightAware ADS-B
Wed 09:29:53 AM 35.4620 28.5320 126° Southeast 537 618 35,000  Level FlightAware ADS-B
Wed 09:30:33 AM 35.4080 28.6220 126° Southeast 547 629 35,000  Level FlightAware ADS-B
Wed 09:31:28 AM 35.3270 28.7610 126° Southeast 548 631 35,000  Level FlightAware ADS-B
Wed 09:32:13 AM 35.2670 28.8620 126° Southeast 549 632 35,000  Level FlightAware ADS-B
Wed 09:32:53 AM 35.2130 28.9560 125° Southeast 549 632 35,000  Level FlightAware ADS-B
Wed 09:33:33 AM 35.1450 29.0680 127° Southeast 550 633 35,000  Level FlightAware ADS-B
Wed 09:34:23 AM 35.0810 29.1760 126° Southeast 550 633 35,000  Level FlightAware ADS-B
Wed 09:35:03 AM 34.9980 29.3140 126° Southeast 549 632 35,000  Level FlightAware ADS-B
Wed 09:35:38 AM 34.9460 29.3990 127° Southeast 547 629 35,000  Level FlightAware ADS-B
Wed 09:36:23 AM 34.8850 29.5010 126° Southeast 547 629 35,000  Level FlightAware ADS-B
Wed 09:37:08 AM 34.8120 29.6220 126° Southeast 545 627 35,000  Level FlightAware ADS-B
Wed 09:37:48 AM 34.7510 29.7230 126° Southeast 545 627 35,000  Level FlightAware ADS-B
Wed 09:38:33 AM 34.6820 29.8370 126° Southeast 545 627 35,000  Level FlightAware ADS-B
Wed 09:39:08 AM 34.6350 29.9160 126° Southeast 545 627 35,000  Level FlightAware ADS-B
Wed 09:39:58 AM 34.5590 30.0500 125° Southeast 549 632 35,000  Level FlightAware ADS-B
Wed 09:40:53 AM 34.4910 30.1910 120° Southeast 548 631 35,000  Level FlightAware ADS-B
Wed 09:41:28 AM 34.4480 30.2820 120° Southeast 548 631 35,000  Level FlightAware ADS-B
Wed 09:42:48 AM 34.3460 30.4940 120° Southeast 551 634 35,000  Level FlightAware ADS-B
Wed 09:43:43 AM 34.2740 30.6460 120° Southeast 548 631 35,000  Level FlightAware ADS-B
Wed 09:44:23 AM 34.2240 30.7460 121° Southeast 549 632 35,000  Level FlightAware ADS-B
Wed 09:45:03 AM 34.1710 30.8550 120° Southeast 549 632 35,000  Level FlightAware ADS-B
Wed 09:45:43 AM 34.1190 30.9620 120° Southeast 549 632 35,000  Level FlightAware ADS-B
Wed 09:46:28 AM 34.0580 31.0870 120° Southeast 550 633 35,000  Level FlightAware ADS-B
Wed 09:47:13 AM 34.0010 31.2040 120° Southeast 550 633 35,000  Level FlightAware ADS-B
Wed 09:47:53 AM 33.9490 31.3070 121° Southeast 550 633 35,000  Level FlightAware ADS-B
Wed 09:48:33 AM 33.8960 31.4160 120° Southeast 549 632 35,000  Level FlightAware ADS-B
Wed 09:49:13 AM 33.8420 31.5240 121° Southeast 548 631 35,000  Level FlightAware ADS-B
Wed 09:49:58 AM 33.7830 31.6420 121° Southeast 545 627 35,000  Level FlightAware ADS-B
Wed 09:50:43 AM 33.7250 31.7600 121° Southeast 544 626 35,000  Level FlightAware ADS-B
Wed 09:51:23 AM 33.6740 31.8620 121° Southeast 546 628 35,000  Level FlightAware ADS-B
Wed 09:52:03 AM 33.6190 31.9690 122° Southeast 547 629 35,000  Level FlightAware ADS-B
Wed 09:52:43 AM 33.5670 32.0740 121° Southeast 547 629 35,000  Level FlightAware ADS-B
Wed 09:53:28 AM 33.5070 32.1920 121° Southeast 549 632 35,000  Level FlightAware ADS-B
Wed 09:54:13 AM 33.4470 32.3120 121° Southeast 548 631 35,000  Level FlightAware ADS-B
Wed 09:54:53 AM 33.3930 32.4170 122° Southeast 547 629 35,000  Level FlightAware ADS-B
Wed 09:55:33 AM 33.3400 32.5230 121° Southeast 552 635 35,000 -271 Level FlightAware ADS-B
Wed 09:57:28 AM 33.1930 32.8070 122° Southeast 528 608 34,300 -890 Descending FlightAware ADS-B
Wed 09:58:08 AM 33.1370 32.9160 122° Southeast 522 601 32,700 -2,175 Descending FlightAware ADS-B
Wed 09:58:48 AM 33.0920 33.0060 121° Southeast 518 596 31,400 -2,080 Descending FlightAware ADS-B
Wed 09:59:23 AM 33.0450 33.0970 122° Southeast 504 580 30,100 -1,380 Descending FlightAware ADS-B
Wed 10:00:28 AM 32.9740 33.2340 122° Southeast 497 572 29,100 -2,171 Descending FlightAware ADS-B
Wed 10:01:08 AM 32.9180 33.3380 123° Southeast 476 548 26,300 -2,965 Descending FlightAware ADS-B
Wed 10:01:53 AM 32.8660 33.4390 121° Southeast 457 526 24,900 -1,333 Descending FlightAware ADS-B
Wed 10:02:38 AM 32.8180 33.5310 122° Southeast 423 487 24,300 -1,059 Descending FlightAware ADS-B
Wed 10:03:18 AM 32.7770 33.6080 122° Southeast 406 467 23,400 -1,500 Descending FlightAware ADS-B
Wed 10:03:58 AM 32.7380 33.6830 122° Southeast 397 457 22,300 -1,650 Descending FlightAware ADS-B
Wed 10:04:38 AM 32.7000 33.7540 122° Southeast 389 448 21,200 -1,976 Descending FlightAware ADS-B
Wed 10:05:23 AM 32.6560 33.8380 122° Southeast 374 430 19,500 -2,682 Descending FlightAware ADS-B
Wed 10:06:03 AM 32.6220 33.9030 122° Southeast 372 428 17,400 -3,257 Descending FlightAware ADS-B
Wed 10:06:33 AM 32.5880 33.9530 129° Southeast 371 427 15,700 -1,886 Descending FlightAware ADS-B
Wed 10:07:13 AM 32.5290 33.9850 155° Southeast 330 380 15,200 -1,350 Descending FlightAware ADS-B
Wed 10:07:53 AM 32.4730 34.0070 162° South 310 357 13,900 -2,047 Descending FlightAware ADS-B
Wed 10:08:38 AM 32.4140 34.0310 161° South 299 344 12,300 -2,200 Descending FlightAware ADS-B
Wed 10:08:53 AM 32.3970 34.0450 145° Southeast 299 344 11,700 -2,400 Descending FlightAware ADS-B
Wed 10:09:08 AM 32.3870 34.0670 118° Southeast 299 344 11,100 -2,182 Descending FlightAware ADS-B
Wed 10:09:48 AM 32.3840 34.1300 93° East 294 338 9,700 -2,182 Descending FlightAware ADS-B
Wed 10:10:03 AM 32.3830 34.1570 93° East 291 335 9,100 -1,964 Descending FlightAware ADS-B
Wed 10:10:43 AM 32.3720 34.2180 102° East 285 328 7,900 -1,457 Descending FlightAware ADS-B
Wed 10:11:13 AM 32.3540 34.2500 124° Southeast 283 326 7,400 -1,300 Descending FlightAware ADS-B
Wed 10:11:43 AM 32.3280 34.2930 126° Southeast 278 320 6,600 -1,418 Descending FlightAware ADS-B
Wed 10:12:08 AM 32.3100 34.3240 124° Southeast 276 318 6,100 -600 Descending FlightAware ADS-B
Wed 10:12:33 AM 32.2950 34.3520 122° Southeast 276 318 6,100  Level FlightAware ADS-B
Wed 10:15:00 AM 32.0920 34.6856 125° Southeast  Level FlightAware Approximate
Wed 10:16:00 AM 32.0219 34.8302 125° Southeast  Level FlightAware Approximate
Wed 10:17:00 AM 32.0000 34.8667 125° Southeast  Level FlightAware Approximate
Wed 10:18:00 AM 32.0095 34.8769 125° Southeast  Level Estimated
Wed 10:19:00 AM 32.0095 34.8769 125° Southeast  Level Estimated
Wed 10:20:00 AM 32.0095 34.8769 125° Southeast  Level Estimated
Wed 10:21:00 AM 32.0095 34.8769 125° Southeast  Level Estimated
Wed 10:22:00 AM 32.0095 34.8769 125° Southeast  Level Estimated
Wed 10:23:00 AM 32.0095 34.8769 125° Southeast  Level Estimated
Wed 10:24:00 AM 32.0095 34.8769 125° Southeast  Level Estimated

Login

Don't have an account? Register now (free) for customized features, flight alerts, and more!